Meteo4 di Emilio Bellavite Il primo osservatorio Meteo di Verona  
 
giovedì 30 maggio 2024
 
 
dati in tempo reale
Di seguito i dati in tempo reale delle stazioni on line della rete di Meteo4. Cliccando sul link della stazione, ove presente, si accederà al sito web personale.
Stazioni online
Località Giorno Ora Temp. Umid. Relat. Dew Point Press. Atm. Velocità Vento Direz. Vento Precip. Temp.
Min
Temp.
Max
Abano (PD) 30/05/24 04.45 18.0 °C 88 % 16.0 °C 1008.0 hPa 0.0 Km/h --- 0.0 mm  18.0 °C 20.6 °C
Acquapendente (VT) 28/05/24 12.45 23.4 °C 59 % 14.9 °C 1012.8 hPa 0.0 Km/h SE 0.0 mm  12.6 °C 24.2 °C
Acquaviva delle Fonti (BA) 30/05/24 04.48 13.9 °C 85 % 11.5 °C 1009.9 hPa 0.0 Km/h WSW 0.0 mm  13.9 °C 15.9 °C
Agordo ARPAV (BL) 30/05/24 04.30 13.2 °C 96 % 12.6 °C  hPa 3.2 Km/h SSW 0.0 mm  13.2 °C 14.1 °C
Ala (TN) 30/05/24 04.48 16.3 °C 85 % 13.8 °C 1007.0 hPa 1.5 Km/h ESE 0.0 mm  16.3 °C 17.1 °C
Ala loc. Ronchi (TN) 30/05/24 04.30 14.9 °C 82 % 11.9 °C  hPa 1.1 Km/h WSW 0.0 mm  14.6 °C 15.8 °C
Albisano (VR) 30/05/24 04.43 17.3 °C 80 % 13.7 °C 1006.6 hPa 0.0 Km/h N 0.0 mm  17.2 °C 19.4 °C
Aldeno loc. San Zeno (TN) 30/05/24 04.30 15.3 °C 95 % 14.5 °C  hPa 1.4 Km/h SSW 0.0 mm  15.2 °C 17.9 °C
Alpe del Tumulo (BZ) 30/05/24 04.40 4.4 °C 92 % 3.2 °C  hPa 6.8 Km/h NE 0.0 mm  4.1 °C 4.8 °C
Alpe di Siusi Zallinger (BZ) 30/05/24 04.40 6.8 °C 93 % 5.7 °C 1008.5 hPa 15.8 Km/h SSE 0.0 mm  6.7 °C 7.3 °C
Alta Val Martello (BZ) 30/05/24 04.40 7.0 °C 100 % 7.0 °C 1012.6 hPa 3.2 Km/h SW 1.9 mm  6.9 °C 8.0 °C
Ancona loc. Brecce Bianche (AN) 30/05/24 04.45 14.8 °C 91 % 13.3 °C 1010.4 hPa 1.8 Km/h NW 0.0 mm  14.7 °C 17.9 °C
Anterselva di Sopra (BZ) 30/05/24 04.40 9.1 °C 100 % 9.1 °C 1009.5 hPa 0.0 Km/h --- 2.9 mm  9.1 °C 9.9 °C
Anticima Cima Libera (BZ) 30/05/24 04.40 -1.7 °C 100 % -1.7 °C  hPa 26.3 Km/h SSW 0.0 mm  -2.2 °C -1.5 °C
Arabba ARPAV (BL) 30/05/24 04.30 8.0 °C 99 % 7.9 °C  hPa 1.4 Km/h SE 0.0 mm  7.9 °C 8.2 °C
Arbizzano di Negrar Zai (VR) 30/05/24 04.34 16.3 °C 92 % 15.0 °C 1006.7 hPa 0.2 Km/h S 0.0 mm  15.8 °C 23.8 °C
Ardea (RM) 30/05/24 04.45 15.1 °C 92 % 13.8 °C 1010.7 hPa 2.5 Km/h NE 0.0 mm  15.1 °C 18.8 °C
Arquà Polesine (RO) 30/05/24 04.45 16.3 °C 92 % 15.0 °C 1009.8 hPa 0.0 Km/h - 0.0 mm  16.3 °C 18.0 °C
Arzignano loc. Castello (VI) 29/05/24 21.45 19.5 °C 76 % 15.2 °C 1008.2 hPa 0.0 Km/h --- 0.0 mm  14.8 °C 25.7 °C
Arzignano Pugnello (VI) 30/05/24 04.45 16.2 °C 40 % 2.6 °C 1006.0 hPa 1.6 Km/h W 0.0 mm  15.6 °C 17.2 °C
Asiago Rifugio Val Formica (VI) 30/05/24 04.45 8.2 °C 98 % 7.8 °C 1008.7 hPa 0.0 Km/h N 0.0 mm  6.3 °C 8.4 °C
Asiago aeroporto ARPAV (VI) 30/05/24 04.30 10.2 °C 93 % 9.1 °C 1010.2 hPa 1.8 Km/h ESE 0.0 mm  7.5 °C 10.2 °C
Auronzo ARPAV (BL) 30/05/24 04.30 10.8 °C 100 % 10.8 °C  hPa 1.1 Km/h NE 0.0 mm  10.8 °C 11.4 °C
Avenza-Carrara (MS) 30/05/24 04.40 16.9 °C 90 % 15.2 °C 1009.1 hPa 0.0 Km/h NW 0.0 mm  16.8 °C 19.3 °C
Avio (TN) 30/05/24 04.48 17.1 °C 83 % 14.2 °C 1007.1 hPa 0.0 Km/h N 0.0 mm  17.0 °C 18.0 °C
Badia Calavena fraz. S. Andrea (VR) 30/05/24 04.34 14.7 °C 87 % 12.5 °C 1016.8 hPa 4.5 Km/h NE 0.0 mm  12.7 °C 15.0 °C
Badia Calavena loc. San Valentino (VR) 30/05/24 04.48 14.5 °C 84 % 11.8 °C 1005.1 hPa 1.6 Km/h N 0.0 mm  13.9 °C 14.8 °C
Badia Cima Pisciadù (BZ) 30/05/24 04.40 0.7 °C 100 % 0.7 °C  hPa 23.8 Km/h SSW 0.0 mm  0.5 °C 1.3 °C
Badia Piz La Ila (BZ) 30/05/24 04.40 6.5 °C 94 % 5.6 °C  hPa 4.7 Km/h WSW 0.0 mm  6.1 °C 6.5 °C
Balbido (TN) 30/05/24 04.45 13.1 °C 91 % 11.7 °C 1013.3 hPa 0.0 Km/h WNW 0.0 mm  13.1 °C 14.0 °C
Barbiano Colma (BZ) 30/05/24 04.40 13.3 °C 96 % 12.7 °C 1008.8 hPa 4.0 Km/h NNE 1.5 mm  13.2 °C 14.7 °C
Bassano del Grappa ARPAV (VI) 30/05/24 04.30 16.5 °C 81 % 13.2 °C  hPa 8.3 Km/h NNW 0.0 mm  16.4 °C 17.4 °C
Belluno - aeroporto ARPAV (BL) 30/05/24 04.30 15.0 °C 95 % 14.2 °C 1010.2 hPa 4.3 Km/h E 0.0 mm  14.7 °C 16.0 °C
Besozzo (VA) 30/05/24 04.48 15.8 °C 98 % 15.5 °C 0.0 hPa 0.0 Km/h N 2.0 mm  15.2 °C 15.9 °C
Bibione ARPAV (VE) 30/05/24 04.30 15.3 °C 100 % 15.3 °C  hPa 3.6 Km/h E 0.0 mm  15.3 °C 18.9 °C
Bolognano di Arco (TN) 30/05/24 04.45 16.6 °C 85 % 14.0 °C 1007.2 hPa 0.0 Km/h NE 0.0 mm  16.5 °C 17.5 °C
Bolzano (BZ) 30/05/24 04.30 17.9 °C 73 % 13.0 °C 1007.4 hPa 8.3 Km/h ENE 0.0 mm  16.9 °C 19.2 °C
Bonorva (SS) 30/05/24 02.55 15.1 °C 85 % 12.6 °C 1011.9 hPa 0.0 Km/h --- 0.0 mm  14.2 °C 15.2 °C
Borgo Pianon (BL) 30/05/24 04.45 11.9 °C 94 % 11.0 °C 1008.2 hPa 0.0 Km/h N 0.0 mm  11.8 °C 12.7 °C
Borgo Valsugana (TN) 30/05/24 04.45 14.7 °C 87 % 12.6 °C 1007.7 hPa 0.0 Km/h SSE 0.0 mm  14.6 °C 16.1 °C
Bosco Chiesanuova ARPAV (VR) 30/05/24 04.30 11.8 °C 99 % 11.6 °C  hPa 2.5 Km/h SSW 1.4 mm  11.8 °C 13.3 °C
Bovolenta ARPAV (PD) 30/05/24 04.30 16.4 °C  %  °C  hPa 0.0 Km/h 0.0 mm  16.3 °C 18.3 °C
Bovolone2 (VR) 30/05/24 04.45 17.1 °C 88 % 15.1 °C 1008.7 hPa 8.3 Km/h ENE 0.0 mm  17.1 °C 19.8 °C
Braies Alpe Cavallo (BZ) 30/05/24 04.40 4.7 °C 97 % 4.3 °C  hPa 7.2 Km/h SW 0.0 mm  4.4 °C 4.9 °C
Brebbia (VA) 29/05/24 21.00 21.6 °C 71 % 16.1 °C 1009.8 hPa 0.0 Km/h SSW 0.0 mm  13.5 °C 26.6 °C
Breganze loc. Maragnole (VI) 30/05/24 04.49 16.4 °C 87 % 14.3 °C 1009.0 hPa 0.0 Km/h NW 0.0 mm  15.9 °C 17.7 °C
Brendola ARPAV (VI) 30/05/24 04.30 16.3 °C 97 % 15.8 °C  hPa 2.2 Km/h NW 0.0 mm  16.3 °C 19.8 °C
Bresega (PD) 30/05/24 04.45 16.8 °C 85 % 14.4 °C 1007.2 hPa 0.0 Km/h N 0.0 mm  16.8 °C 19.6 °C
Bressanone (BZ) 30/05/24 04.40 12.9 °C 100 % 12.9 °C 1009.0 hPa 8.6 Km/h N 9.9 mm  12.6 °C 14.5 °C
Brolo c/da Parrazzà (ME) 30/05/24 04.45 17.1 °C 71 % 11.8 °C 1011.0 hPa 16.0 Km/h ESE 0.0 mm  17.0 °C 18.8 °C
Bronzolo (BZ) 30/05/24 04.30 16.5 °C 89 % 14.7 °C 1009.4 hPa 2.9 Km/h N 0.0 mm  16.4 °C 18.7 °C
Brunico (BZ) 30/05/24 04.30 10.8 °C 98 % 10.5 °C 1010.9 hPa 8.3 Km/h SW 6.3 mm  10.4 °C 11.6 °C
Brustolé ARPAV (VI) 30/05/24 04.30 14.6 °C  %  °C  hPa 0.0 Km/h 0.0 mm  14.3 °C 14.8 °C
Budoia (PN) 30/05/24 04.45 16.3 °C 85 % 13.8 °C 1008.4 hPa 3.2 Km/h NW 0.0 mm  16.3 °C 17.4 °C
Budoia Malga Campo (PN) 30/05/24 04.45 10.3 °C 89 % 8.5 °C 1012.2 hPa 6.0 Km/h SSE 0.0 mm  9.4 °C 10.6 °C
Caldaro Pianizza di Sopra (BZ) 30/05/24 04.30 15.2 °C 86 % 12.9 °C 1008.5 hPa 0.7 Km/h S 0.0 mm  15.1 °C 15.7 °C
Calliano (TN) 30/05/24 04.48 15.1 °C 87 % 12.9 °C 1006.8 hPa 0.0 Km/h SSE 0.0 mm  15.0 °C 16.9 °C
Calmasino ARPAV (VR) 30/05/24 04.30 16.3 °C 87 % 14.1 °C 1008.1 hPa 5.8 Km/h NE 0.0 mm  16.3 °C 17.6 °C
Caltabellotta (AG) 30/05/24 04.40 15.3 °C 62 % 8.0 °C 1008.8 hPa 11.0 Km/h W 0.0 mm  15.3 °C 16.7 °C
Campo Tures Molini (BZ) 30/05/24 04.40 11.0 °C 100 % 11.0 °C 1010.6 hPa 4.7 Km/h WNW 3.7 mm  10.8 °C 11.7 °C
Campodarsego ARPAV (PD) 30/05/24 04.30 15.7 °C 100 % 15.7 °C  hPa 1.8 Km/h NE 0.0 mm  15.3 °C 18.3 °C
Campomolon ARPAV (VI) 30/05/24 04.00 7.7 °C  %  °C  hPa 2.9 Km/h SSE 0.0 mm  7.7 °C 8.1 °C
Canazei loc. Ciampac (TN) 30/05/24 04.30 4.7 °C 98 % 4.4 °C  hPa 0.0 Km/h --- 0.0 mm  3.7 °C 5.4 °C
Canazei loc. Gries (TN) 30/05/24 04.30 9.1 °C 91 % 7.7 °C  hPa 1.4 Km/h ENE 0.0 mm  9.0 °C 9.7 °C
Cansiglio - Tramedere ARPAV (BL) 30/05/24 04.30 9.4 °C 100 % 9.4 °C  hPa 4.0 Km/h SW 0.0 mm  9.4 °C 10.1 °C
Caoria (TN) 30/05/24 04.30 12.3 °C 98 % 12.0 °C  hPa 0.7 Km/h --- 3.0 mm  11.9 °C 13.5 °C
Capanna Sinel (TN) 30/05/24 04.46 5.7 °C 100 % 5.7 °C 1013.2 hPa 17.6 Km/h SSW 0.8 mm  5.7 °C 6.9 °C
Cappella Maggiore (TV) 30/05/24 04.34 15.8 °C 93 % 14.6 °C 1005.1 hPa 0.0 Km/h NW 0.0 mm  15.7 °C 17.3 °C
Caprarola Centro Storico (VT) 30/05/24 03.59 15.2 °C 94 % 14.2 °C 1011.0 hPa 3.5 Km/h SSE 0.0 mm  14.6 °C 16.4 °C
Caprarola San Rocco (VT) 30/05/24 04.48 14.6 °C 94 % 13.7 °C 1010.4 hPa 1.9 Km/h NNE 0.0 mm  14.6 °C 15.8 °C
Caprile ARPAV (BL) 30/05/24 04.30 11.2 °C 97 % 10.7 °C  hPa 19.1 Km/h SW 0.0 mm  11.2 °C 11.5 °C
Caprino (VR) 30/05/24 04.45 17.6 °C 77 % 13.5 °C 1051.6 hPa 1.6 Km/h NNW 0.0 mm  17.0 °C 17.7 °C
Caprino loc. Platano ARPAV (VR) 30/05/24 04.30 16.5 °C 94 % 15.5 °C  hPa 2.2 Km/h N 0.0 mm  16.0 °C 17.4 °C
Careser loc. Diga (TN) 30/05/24 04.30 1.6 °C  %  °C  hPa 0.0 Km/h --- 2.8 mm  1.1 °C 3.0 °C
Casaleone (VR) 30/05/24 04.45 15.9 °C 94 % 14.9 °C 1008.5 hPa 5.8 Km/h E 0.0 mm  15.8 °C 19.3 °C
Casera Coltrondo ARPAV (BL) 30/05/24 04.00 6.5 °C 96 % 5.9 °C  hPa 7.6 Km/h SSE 0.0 mm  6.5 °C 6.8 °C
Casera Doana ARPAV (BL) 30/05/24 04.00 6.8 °C 93 % 5.7 °C  hPa 2.5 Km/h SSW 0.0 mm  6.8 °C 7.6 °C
Casera Palantina ARPAV (BL) 30/05/24 04.00 9.4 °C 89 % 7.7 °C  hPa 0.4 Km/h S 0.0 mm  9.2 °C 9.9 °C
Casera Pian dei Grassi Col. Visetin (TV) 30/05/24 04.32 11.3 °C 96 % 10.4 °C 0.0 hPa 0.0 Km/h - 0.0 mm  11.3 °C 12.4 °C
Casies Cima Regola (BZ) 30/05/24 04.40 0.8 °C 99 % 0.7 °C  hPa 7.6 Km/h WSW 0.0 mm  1.0 °C 1.2 °C
Casies Malga Pfinn (BZ) 30/05/24 04.40 6.0 °C 95 % 5.3 °C  hPa 6.5 Km/h WNW 0.0 mm  5.2 °C 6.2 °C
Casotto (VI) 30/05/24 04.46 14.3 °C 92 % 13.0 °C 1007.0 hPa 0.0 Km/h ESE 0.0 mm  14.2 °C 14.8 °C
Cassone (VR) 30/05/24 04.45 17.8 °C 77 % 13.7 °C 1007.6 hPa 1.0 Km/h ESE 0.0 mm  17.2 °C 19.2 °C
Castana ARPAV (VI) 30/05/24 04.30 13.1 °C 94 % 12.2 °C  hPa 2.2 Km/h WNW 0.2 mm  11.8 °C 13.1 °C
Castel d'Azzano (VR) 30/05/24 04.35 17.9 °C 83 % 15.0 °C 1008.5 hPa 0.0 Km/h SE 0.0 mm  17.9 °C 19.5 °C
Castel d'Azzano2 (VR) 30/05/24 04.46 17.8 °C 82 % 14.6 °C 1009.0 hPa 1.0 Km/h E 0.0 mm  17.7 °C 18.9 °C
Castelferro (AL) 30/05/24 04.45 17.2 °C 80 % 13.7 °C 1007.0 hPa 0.0 Km/h S 0.0 mm  16.5 °C 17.8 °C
Castelfranco Veneto ARPAV (TV) 30/05/24 04.30 16.1 °C 100 % 16.1 °C  hPa 1.4 Km/h ESE 0.0 mm  16.1 °C 16.6 °C
Castello Tesino loc. Le Parti (TN) 30/05/24 04.30 12.6 °C 94 % 11.7 °C  hPa 1.8 Km/h ESE 0.0 mm  12.2 °C 13.2 °C
Castelnovo Bariano ARPAV (RO) 30/05/24 04.30 15.9 °C 100 % 15.9 °C  hPa 5.0 Km/h NNE 0.0 mm  15.9 °C 19.0 °C
Castelnuovo del Garda ARPAV (VR) 30/05/24 04.30 17.2 °C 85 % 14.7 °C  hPa 4.3 Km/h SE 0.0 mm  15.9 °C 18.0 °C
Castelnuovo V.C. (PI) 30/05/24 04.48 10.3 °C 93 % 9.3 °C 1008.2 hPa 2.0 Km/h NW 0.0 mm  10.3 °C 12.1 °C
Castiglione (VR) 30/05/24 04.45 16.7 °C 88 % 14.7 °C 1008.7 hPa 2.2 Km/h NNE 0.0 mm  16.6 °C 18.6 °C
Castiglione della Pescaia Vaticino (GR) 30/05/24 04.45 14.4 °C 82 % 11.4 °C 1006.2 hPa 0.0 Km/h WSW 0.0 mm  14.4 °C 17.9 °C
Cavalese (TN) 30/05/24 04.30 11.2 °C 89 % 9.5 °C  hPa 3.6 Km/h NE 0.0 mm  10.9 °C 12.4 °C
Cavallino Treporti ARPAV (VE) 30/05/24 04.30 17.8 °C 100 % 17.8 °C 1009.5 hPa 2.9 Km/h ENE 0.0 mm  17.8 °C 20.1 °C
Cavaria con Premezzo (VA) 30/05/24 04.45 15.4 °C 89 % 13.6 °C 1007.0 hPa 1.7 Km/h NE 21.8 mm  15.1 °C 15.8 °C
Cavarzere ARPAV (VE) 30/05/24 04.30 15.8 °C 100 % 15.8 °C  hPa 2.5 Km/h NNW 0.0 mm  15.8 °C 17.4 °C
Cavazzale2 (VI) 30/05/24 04.49 17.2 °C 87 % 15.0 °C 1008.9 hPa 0.0 Km/h WNW 0.0 mm  17.1 °C 18.9 °C
Cefalù (PA) 30/05/24 04.40 18.3 °C 79 % 14.6 °C 1010.5 hPa 4.0 Km/h SW 0.0 mm  18.3 °C 19.4 °C
Cembra (TN) 30/05/24 04.30 14.3 °C 84 % 11.6 °C  hPa 2.9 Km/h NW 0.0 mm  14.0 °C 14.9 °C
Cerea (VR) 30/05/24 00.55 18.9 °C 84 % 16.1 °C 1009.2 hPa 3.2 Km/h SSE 0.0 mm  18.9 °C 19.9 °C
Cerea2 (VR) 30/05/24 04.45 16.8 °C 91 % 15.3 °C 1008.9 hPa 5.0 Km/h ENE 0.0 mm  16.5 °C 18.7 °C
Chiampo (VI) 30/05/24 04.45 16.3 °C 86 % 14.0 °C 1006.7 hPa 0.0 Km/h W 0.0 mm  15.3 °C 16.4 °C
Chieti (CH) 30/05/24 02.10 16.4 °C 86 % 14.0 °C 1011.4 hPa 6.0 Km/h SW 0.0 mm  16.4 °C 18.9 °C
Chioggia - Sant'Anna ARPAV (VE) 30/05/24 04.30 15.9 °C 100 % 15.9 °C  hPa 5.0 Km/h NE 0.0 mm  15.9 °C 18.2 °C
Chioggia Centro ARPAV (VE) 30/05/24 04.30 19.6 °C  %  °C  hPa 0.0 Km/h 0.0 mm  19.1 °C 20.2 °C
Cima Pradazzo ARPAV (BL) 30/05/24 04.00 4.8 °C 95 % 4.1 °C  hPa 8.6 Km/h SW 0.0 mm  4.8 °C 5.0 °C
Cismon del Grappa loc. Corlo (VI) 30/05/24 04.49 14.8 °C 89 % 13.0 °C 1010.7 hPa 0.0 Km/h E 0.0 mm  14.7 °C 16.1 °C
Civita Castellana (VT) 30/05/24 04.46 14.0 °C 89 % 12.2 °C 1011.0 hPa 0.0 Km/h SW 0.0 mm  14.0 °C 17.8 °C
Clusio Kloangruebes (BZ) 30/05/24 04.40 1.9 °C 98 % 1.6 °C  hPa 0.0 Km/h WSW 0.0 mm  1.8 °C 3.0 °C
Codroipo (UD) 30/05/24 04.44 16.4 °C 85 % 13.9 °C 1008.3 hPa 0.2 Km/h SE 0.0 mm  16.4 °C 17.8 °C
Cogollo del Cengio (VI) 30/05/24 04.08 14.7 °C 97 % 14.2 °C 1008.1 hPa 3.5 Km/h NNW 0.0 mm  14.7 °C 16.4 °C
Col Dei Baldi ARPAV (BL) 30/05/24 04.00 6.7 °C 95 % 6.0 °C 1008.2 hPa 2.9 Km/h SE 0.0 mm  6.7 °C 6.9 °C
Col Indes - Tambre ARPAV (BL) 30/05/24 04.30 10.9 °C 100 % 10.9 °C  hPa 2.2 Km/h SSE 0.0 mm  10.9 °C 12.0 °C
Cologna Veneta Sant'Andrea (VR) 30/05/24 04.48 17.1 °C 90 % 15.4 °C 1007.8 hPa 1.6 Km/h ENE 0.0 mm  17.1 °C 18.7 °C
Conegliano ARPAV (TV) 30/05/24 04.30 17.4 °C 88 % 15.4 °C  hPa 3.2 Km/h ENE 0.0 mm  17.4 °C 18.5 °C
Conselice (RA) 30/05/24 04.34 16.0 °C 92 % 14.7 °C 1007.2 hPa 1.5 Km/h E 0.0 mm  16.0 °C 17.7 °C
Contrà Doppio ARPAV (VI) 30/05/24 04.30 12.7 °C  %  °C  hPa 0.0 Km/h 1.0 mm  12.7 °C 13.3 °C
Contrada Italiani (VR) 30/05/24 04.34 14.7 °C 83 % 11.9 °C 1023.2 hPa 6.5 Km/h NE 0.0 mm  14.7 °C 16.1 °C
Cornedo Vicentino loc. Muzzolon (VI) 30/05/24 04.34 15.2 °C 98 % 14.9 °C 998.9 hPa 0.6 Km/h SE 2.0 mm  14.5 °C 17.1 °C
Corno del Renon (BZ) 30/05/24 04.40 4.8 °C 101 % 4.9 °C  hPa 29.9 Km/h SW 0.0 mm  4.7 °C 5.2 °C
Cortina d'Ampezzo - Gilardon ARPAV (BL) 30/05/24 04.30 10.2 °C 95 % 9.4 °C  hPa 4.3 Km/h WSW 0.0 mm  10.2 °C 10.8 °C
Corvara (BZ) 30/05/24 04.30 9.5 °C 94 % 8.6 °C 1008.5 hPa 1.8 Km/h S 0.1 mm  7.6 °C 10.0 °C
Costa di Vittorio Veneto (TV) 30/05/24 04.34 17.1 °C 85 % 14.6 °C 1006.8 hPa 0.0 Km/h ENE 0.0 mm  17.1 °C 18.2 °C
Crespadoro ARPAV (VI) 30/05/24 04.30 14.4 °C 94 % 13.4 °C  hPa 5.0 Km/h W 0.2 mm  12.8 °C 14.4 °C
Crespano del Grappa ARPAV (VI) 30/05/24 04.30 14.5 °C 100 % 14.5 °C  hPa 5.4 Km/h NNW 0.0 mm  14.2 °C 14.5 °C
Cresta del Giovo (BZ) 30/05/24 04.40 5.9 °C 101 % 6.0 °C  hPa 14.4 Km/h S 0.0 mm  5.3 °C 6.2 °C
Crosara ARPAV (VI) 30/05/24 04.30 15.6 °C  %  °C  hPa 0.0 Km/h 0.0 mm  15.3 °C 15.6 °C
Curon Belpiano (BZ) 30/05/24 04.40 5.9 °C 96 % 5.3 °C  hPa 1.8 Km/h SE 0.0 mm  5.0 °C 6.5 °C
Curon Cima Undici (BZ) 30/05/24 04.40 0.2 °C 101 % 0.3 °C  hPa 30.2 Km/h SSE 0.0 mm  -0.1 °C 0.7 °C
Daone loc. Malga Bissina (TN) 30/05/24 04.30 6.9 °C 100 % 6.9 °C  hPa 6.8 Km/h NNW 0.0 mm  5.8 °C 7.9 °C
Dobbiaco (BZ) 30/05/24 04.40 10.3 °C 90 % 8.7 °C 1010.0 hPa 9.4 Km/h SE 0.0 mm  9.2 °C 10.5 °C
Dobbiaco Cima Piatta Alta (BZ) 30/05/24 04.40 0.3 °C 100 % 0.3 °C  hPa 17.6 Km/h WSW 0.0 mm  0.3 °C 0.9 °C
Dolcé ARPAV (VR) 30/05/24 04.30 16.6 °C 95 % 15.8 °C  hPa 4.0 Km/h NNE 0.0 mm  16.3 °C 17.1 °C
Domegge di Cadore ARPAV (BL) 30/05/24 04.30 12.3 °C 100 % 12.3 °C  hPa 2.5 Km/h WSW 0.0 mm  12.3 °C 13.5 °C
Dorno (PV) 30/05/24 04.48 17.9 °C 81 % 14.6 °C 1007.1 hPa 0.0 Km/h SSE 0.0 mm  17.9 °C 19.3 °C
Dos Del Sabion loc. Monte Grual (TN) 30/05/24 04.30 6.7 °C 99 % 6.6 °C  hPa 5.0 Km/h S 0.0 mm  6.6 °C 7.2 °C
Dossobuono (VR) 30/05/24 04.48 18.1 °C 86 % 15.7 °C 1008.2 hPa 1.6 Km/h ENE 0.0 mm  18.1 °C 20.1 °C
Dro loc. Marocche (TN) 30/05/24 04.30 15.4 °C 83 % 12.5 °C  hPa 4.7 Km/h NE 0.0 mm  14.3 °C 15.6 °C
El Masnou (Barcellona) 30/05/24 04.45 19.1 °C 90 % 17.5 °C 1013.2 hPa 2.6 Km/h WSW 0.0 mm  18.6 °C 20.1 °C
Eraclea ARPAV (VE) 30/05/24 04.30 14.7 °C 100 % 14.7 °C  hPa 1.4 Km/h SSE 0.0 mm  14.7 °C 16.0 °C
Erbezzo Passo Fittanze (VR) 25/05/24 13.21 6.7 °C 95 % 6.0 °C 1019.6 hPa 5.0 Km/h ENE 4.6 mm  5.9 °C 8.9 °C
Esine (BS) 30/05/24 04.45 15.7 °C 92 % 14.4 °C 1006.8 hPa 0.0 Km/h SSW 0.0 mm  15.6 °C 17.7 °C
Faedo ARPAV (PD) 30/05/24 04.30 16.5 °C 77 % 12.5 °C  hPa 4.0 Km/h ENE 0.0 mm  16.3 °C 17.1 °C
Faida di Piné loc. Prada (TN) 30/05/24 04.45 10.6 °C 97 % 10.1 °C 1013.1 hPa 0.0 Km/h NNW 1.2 mm  9.3 °C 11.1 °C
Falcade ARPAV (BL) 30/05/24 04.30 10.4 °C 100 % 10.4 °C  hPa 2.9 Km/h SW 0.0 mm  10.4 °C 10.9 °C
Faloria ARPAV (BL) 30/05/24 04.30 4.7 °C 100 % 4.7 °C  hPa 7.6 Km/h SSE 0.0 mm  4.6 °C 5.0 °C
Falzè di Piave (TV) 29/05/24 21.09 18.9 °C 78 % 15.0 °C 1011.2 hPa 0.0 Km/h --- 0.0 mm  11.5 °C 25.9 °C
Faverghera ARPAV (BL) 30/05/24 04.00 8.8 °C 93 % 7.7 °C  hPa 6.8 Km/h WSW 0.0 mm  8.8 °C 9.4 °C
Feltre ARPAV (BL) 30/05/24 04.30 14.6 °C 100 % 14.6 °C  hPa 2.2 Km/h WSW 0.0 mm  14.6 °C 15.7 °C
Feltre Celarda (BL) 30/05/24 04.48 14.4 °C 93 % 13.3 °C 1008.9 hPa 0.0 Km/h WSW 0.0 mm  14.4 °C 15.6 °C
Fener ARPAV (TV) 30/05/24 04.30 15.4 °C  %  °C  hPa 0.0 Km/h 0.0 mm  15.4 °C 15.7 °C
Ferrara di Monte Baldo (VR) 30/05/24 04.27 13.4 °C 87 % 11.2 °C 993.5 hPa 0.0 Km/h N 0.0 mm  12.6 °C 13.9 °C
Fiavè loc. Ballino (TN) 30/05/24 04.43 12.8 °C 91 % 11.4 °C 1007.1 hPa 1.0 Km/h NNE 0.0 mm  12.1 °C 13.1 °C
Fiè allo Sciliar (BZ) 30/05/24 04.40 13.1 °C 90 % 11.5 °C 1011.2 hPa 1.1 Km/h S 0.0 mm  13.1 °C 14.5 °C
Filo di Argenta (FE) 30/05/24 04.45 15.0 °C 92 % 13.7 °C 1008.8 hPa 0.0 Km/h N 0.0 mm  15.0 °C 17.5 °C
Fleres (BZ) 30/05/24 04.30 9.6 °C 97 % 9.1 °C 1009.4 hPa 0.7 Km/h E 0.3 mm  8.8 °C 9.7 °C
Fogliano Redipuglia (GO) 30/05/24 04.45 15.5 °C 82 % 12.4 °C 1008.8 hPa 14.4 Km/h E 0.0 mm  14.4 °C 16.1 °C
Foligno (PG) 30/05/24 04.45 17.1 °C 83 % 14.2 °C 1009.0 hPa 1.6 Km/h SE 0.0 mm  17.1 °C 19.8 °C
Follina ARPAV (TV) 30/05/24 04.30 13.7 °C 100 % 13.7 °C  hPa 1.4 Km/h NNE 0.0 mm  12.8 °C 13.7 °C
Fontanafredda (PN) 30/05/24 04.49 16.6 °C 87 % 14.4 °C 1008.3 hPa 0.2 Km/h WSW 0.0 mm  16.0 °C 17.2 °C
Fonte (TV) 30/05/24 04.45 15.3 °C 90 % 13.7 °C 1008.7 hPa 0.0 Km/h NE 0.0 mm  15.1 °C 15.9 °C
Forno di Zoldo - Campo ARPAV (BL) 30/05/24 04.30 11.3 °C 100 % 11.3 °C  hPa 2.2 Km/h W 0.0 mm  11.3 °C 11.9 °C
Fortezza Le Cave (BZ) 30/05/24 04.40 11.2 °C 99 % 11.0 °C 1008.0 hPa 4.7 Km/h E 1.2 mm  11.2 °C 13.2 °C
Fortogna ARPAV (BL) 30/05/24 04.30 14.1 °C  %  °C  hPa 0.0 Km/h 1.0 mm  14.1 °C 15.6 °C
Fossalta di Portogruaro ARPAV (VE) 30/05/24 04.30 16.6 °C 96 % 16.0 °C  hPa 5.8 Km/h E 0.0 mm  16.3 °C 17.0 °C
Fregona Malga Picotera (TV) 30/05/24 04.45 11.5 °C 89 % 9.7 °C 1008.9 hPa 0.0 Km/h N 0.0 mm  11.4 °C 12.5 °C
Fregona Osservatorio Astronomico Piadera (TV) 29/05/24 19.29 20.8 °C 63 % 13.5 °C 1013.2 hPa 0.0 Km/h WNW 0.0 mm  12.8 °C 23.7 °C
Fumane Contrada La Ca (VR) 30/05/24 04.30 16.7 °C 77 % 12.8 °C 1010.3 hPa 0.0 Km/h N 0.0 mm  16.3 °C 17.5 °C
Fundres (BZ) 30/05/24 04.30 9.8 °C 100 % 9.8 °C 1008.5 hPa 2.9 Km/h S 1.7 mm  9.6 °C 12.0 °C
Fundres Malga Stutzen (BZ) 30/05/24 04.40 5.4 °C 100 % 5.4 °C  hPa 0.0 Km/h N 0.0 mm  5.3 °C 6.9 °C
Fundres Punta di Dan (BZ) 30/05/24 04.40 1.4 °C 100 % 1.4 °C  hPa 3.6 Km/h ESE 0.0 mm  1.0 °C 2.1 °C
Funes (BZ) 30/05/24 04.30 9.7 °C 94 % 8.8 °C 1009.1 hPa 3.2 Km/h NNE 2.1 mm  9.7 °C 11.5 °C
Gaggiano (MI) 30/05/24 04.45 18.9 °C 76 % 14.6 °C 1007.1 hPa 0.7 Km/h SSW 0.0 mm  18.8 °C 20.2 °C
Gaiarine ARPAV (TV) 30/05/24 04.30 16.6 °C 89 % 14.8 °C  hPa 0.0 Km/h 0.0 mm  15.2 °C 17.0 °C
Galargues (Hérault) 30/05/24 04.44 17.4 °C 82 % 14.3 °C 1012.2 hPa 0.0 Km/h NE 0.0 mm  17.4 °C 20.3 °C
Galzignano Terme ARPAV (PD) 30/05/24 04.30 14.8 °C 100 % 14.8 °C  hPa 1.4 Km/h NNW 0.0 mm  14.8 °C 16.1 °C
Gambellara (VI) 30/05/24 04.45 15.9 °C 92 % 14.6 °C 1009.0 hPa 1.7 Km/h NE 0.0 mm  15.7 °C 17.3 °C
Garda (VR) 30/05/24 04.44 17.6 °C 78 % 13.7 °C 1008.8 hPa 0.0 Km/h NNE 0.0 mm  17.6 °C 19.1 °C
Gardolo (TN) 30/05/24 04.44 16.8 °C 82 % 13.7 °C 1007.1 hPa 0.0 Km/h SSE 0.0 mm  16.8 °C 18.3 °C
Gargazzone (BZ) 30/05/24 04.30 15.8 °C 100 % 15.8 °C 1008.5 hPa 2.5 Km/h NNE 1.9 mm  15.7 °C 16.9 °C
Genova Erzelli (GE) 30/05/24 04.48 18.9 °C 87 % 16.7 °C 1008.0 hPa 4.8 Km/h NNE 0.0 mm  18.2 °C 19.0 °C
Genova Oregina (GE) 30/05/24 04.48 17.2 °C 100 % 17.2 °C 1011.9 hPa 1.6 Km/h N 0.0 mm  17.2 °C 17.9 °C
Goito (MN) 30/05/24 04.45 16.3 °C 94 % 15.3 °C 1007.6 hPa 0.0 Km/h E 0.0 mm  16.3 °C 20.7 °C
Gradisca d'Isonzo (GO) 30/05/24 04.46 13.3 °C 89 % 11.5 °C 1004.3 hPa 0.0 Km/h ENE 0.0 mm  13.1 °C 16.3 °C
Grantorto ARPAV (PD) 30/05/24 04.30 16.0 °C 97 % 15.5 °C  hPa 1.4 Km/h NNW 0.0 mm  15.8 °C 16.4 °C
Grigno (TN) 30/05/24 04.30 14.4 °C 98 % 14.1 °C  hPa 2.5 Km/h E 0.0 mm  13.9 °C 14.6 °C
Guà a Ponte Guà ARPAV (VI) 29/05/24 10.30 21.4 °C  %  °C  hPa 6.5 Km/h NNE 0.0 mm  14.4 °C 21.4 °C
Iglesias (CI) 30/05/24 04.46 16.9 °C 87 % 14.7 °C 1014.5 hPa 1.4 Km/h SW 0.0 mm  16.2 °C 18.5 °C
Illasi ARPAV (VR) 30/05/24 04.30 16.9 °C 96 % 16.3 °C  hPa 7.2 Km/h N 0.0 mm  16.3 °C 17.0 °C
Isera loc. Reviano (TN) 30/05/24 04.49 15.2 °C 87 % 13.0 °C 1004.2 hPa 0.0 Km/h SW 0.0 mm  15.1 °C 16.2 °C
Isola Vicentina ARPAV (VI) 30/05/24 04.30 17.0 °C  %  °C  hPa 0.0 Km/h 0.4 mm  16.3 °C 17.1 °C
Jesolo - Cortellazzo ARPAV (VE) 30/05/24 04.30 16.1 °C 95 % 15.3 °C  hPa 3.6 Km/h NE 0.0 mm  16.1 °C 18.8 °C
La Guarda ARPAV (BL) 30/05/24 04.30 13.2 °C  %  °C  hPa 0.0 Km/h 0.0 mm  13.0 °C 13.2 °C
La Thuile Rifugio LoRiondet (AO) 30/05/24 04.45 7.4 °C 86 % 5.0 °C 1008.1 hPa 12.9 Km/h WNW 0.8 mm  6.7 °C 8.0 °C
Ladurns (BZ) 30/05/24 04.40 5.8 °C 94 % 4.9 °C  hPa 0.7 Km/h SE 0.0 mm  5.4 °C 7.9 °C
Laimburg (BZ) 30/05/24 04.40 17.1 °C 85 % 14.6 °C 1009.6 hPa 0.4 Km/h ENE 0.0 mm  17.2 °C 19.7 °C
Lasa Oris (BZ) 30/05/24 04.40 11.0 °C 100 % 11.0 °C 1009.1 hPa 1.1 Km/h WSW 0.4 mm  10.8 °C 11.5 °C
Lattarico (CS) 30/05/24 04.45 15.7 °C 73 % 10.9 °C 1011.5 hPa 3.2 Km/h N 0.0 mm  15.4 °C 16.9 °C
Lavis (TN) 30/05/24 04.49 16.5 °C 80 % 13.0 °C 1007.9 hPa 4.8 Km/h ENE 0.0 mm  16.5 °C 19.1 °C
Legnago (VR) 30/05/24 04.45 16.2 °C 91 % 14.4 °C 1007.8 hPa 0.0 Km/h E 0.0 mm  16.2 °C 19.2 °C
Legnago Aeroporto (VR) 30/05/24 04.16 16.3 °C 92 % 15.0 °C 1008.4 hPa 8.0 Km/h NNE 0.0 mm  16.2 °C 18.6 °C
Legnaro ARPAV (PD) 30/05/24 04.30 16.6 °C 93 % 15.5 °C  hPa 2.5 Km/h ENE 0.0 mm  16.6 °C 17.5 °C
Lesmo (MB) 30/05/24 04.45 15.6 °C 92 % 14.3 °C 1007.1 hPa 0.0 Km/h --- 0.5 mm  15.1 °C 15.6 °C
Levico Terme (TN) 30/05/24 04.30 14.6 °C 86 % 12.3 °C  hPa 1.8 Km/h ENE 0.0 mm  14.5 °C 16.1 °C
Lignerolles (Allier) 30/05/24 04.48 14.4 °C 98 % 14.1 °C 1010.3 hPa 1.6 Km/h WSW 0.4 mm  14.3 °C 14.9 °C
Loano (SV) 30/05/24 04.40 19.6 °C 88 % 17.6 °C 1007.9 hPa 3.2 Km/h N 0.0 mm  19.6 °C 20.3 °C
Longiarù Passo Poma (BZ) 30/05/24 04.40 4.3 °C 100 % 4.3 °C  hPa 5.0 Km/h NNE 0.0 mm  4.4 °C 5.4 °C
Lonigo (VI) 30/05/24 04.48 17.1 °C 83 % 14.2 °C 1008.2 hPa 6.5 Km/h NW 0.0 mm  16.7 °C 19.1 °C
Lonigo ARPAV (VI) 30/05/24 04.30 16.7 °C 97 % 16.2 °C  hPa 9.7 Km/h NNE 0.0 mm  15.9 °C 19.5 °C
Lugagnano (VR) 30/05/24 04.45 18.2 °C 83 % 15.3 °C 1007.3 hPa 2.6 Km/h ESE 0.0 mm  17.8 °C 19.2 °C
Lugugnana ARPAV (VE) 30/05/24 04.30 16.6 °C 100 % 16.6 °C  hPa 6.5 Km/h ENE 0.0 mm  16.1 °C 17.2 °C
Lusiana Sciessere (VI) 30/05/24 04.45 13.9 °C 89 % 12.1 °C 1008.2 hPa 0.0 Km/h NNE 0.8 mm  13.8 °C 15.0 °C
Malcesine (VR) 30/05/24 04.44 18.8 °C 78 % 15.0 °C 1001.8 hPa 0.0 Km/h E 0.0 mm  18.4 °C 23.7 °C
Malcesine Loc. Pre (VR) 30/05/24 04.45 18.0 °C 84 % 15.3 °C 1009.1 hPa 0.0 Km/h WSW 0.0 mm  17.0 °C 19.0 °C
Malcesine Navene (VR) 30/05/24 04.46 17.8 °C 79 % 14.1 °C 1009.1 hPa 0.0 Km/h ENE 0.0 mm  17.8 °C 19.3 °C
Malè (TN) 30/05/24 04.30 11.9 °C 93 % 10.8 °C  hPa 1.4 Km/h NE 0.0 mm  11.2 °C 12.2 °C
Malga Ciapela ARPAV (BL) 30/05/24 04.30 8.4 °C  %  °C  hPa 0.0 Km/h 0.0 mm  8.2 °C 8.5 °C
Malga Larici ARPAV (VI) 30/05/24 04.00 8.6 °C 93 % 7.5 °C  hPa 2.5 Km/h NE 0.0 mm  8.5 °C 8.8 °C
Malga Losch ARPAV (BL) 30/05/24 04.00 7.7 °C 94 % 6.8 °C  hPa 0.7 Km/h S 0.0 mm  7.7 °C 8.1 °C
Malga Malera (VR) 30/05/24 04.38 7.4 °C  %  °C  hPa 0.0 Km/h 0.0 mm  3.8 °C 8.8 °C
Malga Nardis (TN) 30/05/24 04.44 7.8 °C 96 % 7.2 °C 1005.4 hPa 10.2 Km/h ENE 0.0 mm  7.4 °C 8.1 °C
Malnate San Salvatore (VA) 30/05/24 04.40 16.2 °C 93 % 15.0 °C 1007.3 hPa 3.2 Km/h SSW 1.0 mm  15.1 °C 16.2 °C
Malo ARPAV (VI) 30/05/24 04.30 17.1 °C 88 % 15.1 °C 1009.2 hPa 7.2 Km/h NW 0.0 mm  16.6 °C 17.5 °C
Marano di Valpolicella (VR) 30/05/24 04.45 18.4 °C 75 % 13.9 °C 976.9 hPa 1.6 Km/h SE 0.0 mm  17.5 °C 18.6 °C
Marano di Valpolicella ARPAV (VR) 30/05/24 04.30 17.8 °C 84 % 15.1 °C  hPa 2.5 Km/h ENE 0.0 mm  16.5 °C 17.8 °C
Marcellise (VR) 30/05/24 04.45 17.7 °C 79 % 14.0 °C 1008.6 hPa 16.6 Km/h N 0.0 mm  17.2 °C 18.7 °C
Margone (TN) 30/05/24 04.40 13.0 °C 87 % 10.9 °C 1008.6 hPa 0.0 Km/h NW 0.0 mm  12.7 °C 13.2 °C
Marineo (PA) 30/05/24 04.49 16.3 °C 84 % 13.6 °C 1010.0 hPa 0.0 Km/h NNW 0.0 mm  16.1 °C 17.0 °C
Marmolada loc. Sas Del Mul (TN) 30/05/24 04.30 1.7 °C 96 % 1.1 °C  hPa 0.0 Km/h --- 0.0 mm  1.2 °C 3.5 °C
Marmolada - Punta Rocca ARPAV (BL) 30/05/24 04.00 -1.5 °C  %  °C  hPa 0.0 Km/h 0.0 mm  -1.9 °C -1.5 °C
Marostica Valle San Floriano (VI) 30/05/24 04.46 15.8 °C 94 % 14.8 °C 1009.1 hPa 0.0 Km/h SSE 0.0 mm  15.6 °C 16.2 °C
Marta (VT) 30/05/24 04.46 16.6 °C 94 % 15.6 °C 1011.0 hPa 0.0 Km/h SSW 0.0 mm  16.3 °C 17.4 °C
Martignano (TN) 30/05/24 04.49 16.6 °C 81 % 13.3 °C 1006.0 hPa 0.0 Km/h WNW 0.0 mm  15.9 °C 18.1 °C
Marzana (VR) 30/05/24 04.46 17.4 °C 79 % 13.9 °C 1008.0 hPa 1.6 Km/h NNW 0.0 mm  16.8 °C 18.3 °C
Massone di Arco (TN) 30/05/24 04.45 16.5 °C 84 % 13.8 °C 1008.5 hPa 1.6 Km/h SSE 0.0 mm  16.2 °C 17.4 °C
Melago Monte Pratzen (BZ) 30/05/24 04.40 3.8 °C 97 % 3.4 °C  hPa 0.7 Km/h N 0.0 mm  3.9 °C 4.9 °C
Merano (BZ) 30/05/24 04.40 16.0 °C 100 % 16.0 °C 1008.4 hPa 0.4 Km/h E 0.0 mm  16.0 °C 17.0 °C
Merlara (PD) 30/05/24 04.40 16.2 °C 90 % 14.5 °C 1006.8 hPa 4.8 Km/h ESE 0.0 mm  16.1 °C 18.7 °C
Mezzana (TN) 30/05/24 04.30 11.6 °C 89 % 9.8 °C  hPa 3.2 Km/h WSW 0.0 mm  11.1 °C 12.5 °C
Mezzano (TN) 30/05/24 04.30 12.9 °C 100 % 12.9 °C  hPa 2.2 Km/h E 0.0 mm  12.9 °C 13.8 °C
Miglionico (MT) 30/05/24 04.40 15.8 °C 82 % 12.7 °C 1007.8 hPa 0.0 Km/h --- 0.0 mm  15.8 °C 17.4 °C
Minerbe (VR) 30/05/24 04.44 16.5 °C 89 % 14.7 °C 1008.5 hPa 6.5 Km/h E 0.0 mm  16.4 °C 18.4 °C
Miola di Piné (TN) 30/05/24 04.46 12.6 °C 92 % 11.3 °C 1007.3 hPa 3.2 Km/h SSE 0.4 mm  12.2 °C 13.4 °C
Miola di Piné loc. Costalta (TN) 30/05/24 04.46 6.5 °C 99 % 6.4 °C 1012.0 hPa 12.3 Km/h S 0.6 mm  6.2 °C 7.3 °C
Mira ARPAV (VE) 30/05/24 04.30 17.2 °C 100 % 17.2 °C  hPa 0.0 Km/h 0.0 mm  16.7 °C 17.5 °C
Misurina ARPAV (BL) 30/05/24 04.30 7.4 °C 100 % 7.4 °C  hPa 4.7 Km/h S 0.0 mm  7.4 °C 7.8 °C
Mogliano Veneto ARPAV (TV) 30/05/24 04.30 16.3 °C 100 % 16.3 °C  hPa 4.3 Km/h NE 0.0 mm  15.9 °C 17.0 °C
Molini ARPAV (VI) 30/05/24 04.30 13.1 °C 94 % 12.2 °C  hPa 0.0 Km/h 0.0 mm  12.9 °C 13.5 °C
Moneglia loc. Casale (GE) 30/05/24 04.45 16.2 °C 94 % 15.2 °C 1009.7 hPa 0.0 Km/h SW 0.0 mm  16.2 °C 17.3 °C
Moneglia loc. La Secca (GE) 30/05/24 04.45 18.0 °C 86 % 15.6 °C 1008.3 hPa 3.2 Km/h NNE 0.0 mm  18.0 °C 18.8 °C
Monguelfo (BZ) 30/05/24 04.30 9.3 °C 100 % 9.3 °C 1010.3 hPa 4.7 Km/h WNW 0.0 mm  8.1 °C 9.3 °C
Montagna in Valtellina (SO) 30/05/24 04.48 16.7 °C 86 % 14.4 °C 1006.9 hPa 0.0 Km/h NNW 0.0 mm  16.6 °C 18.6 °C
Monte Baldo Nord ARPAV (VR) 30/05/24 04.00 8.2 °C 96 % 7.6 °C 1009.0 hPa 14.8 Km/h SW 0.0 mm  8.2 °C 8.5 °C
Monte Bondone loc. Viote (TN) 30/05/24 04.30 9.1 °C 100 % 9.1 °C  hPa 1.8 Km/h ESE 3.2 mm  7.7 °C 9.7 °C
Monte Cesen ARPAV (TV) 30/05/24 04.00 8.6 °C 100 % 8.6 °C  hPa 14.8 Km/h SSW 0.0 mm  8.6 °C 9.1 °C
Monte Cherz ARPAV (BL) 30/05/24 04.00 6.1 °C 98 % 5.8 °C  hPa 16.6 Km/h ENE 0.0 mm  5.9 °C 6.3 °C
Monte Grande ARPAV (PD) 30/05/24 04.00 16.5 °C  %  °C  hPa 0.0 Km/h 0.0 mm  16.5 °C 17.5 °C
Monte Lisser ARPAV (VI) 30/05/24 04.00 9.7 °C 92 % 8.5 °C 1008.9 hPa 11.9 Km/h S 0.0 mm  9.3 °C 9.9 °C
Monte Maria (BZ) 30/05/24 04.40 10.3 °C 94 % 9.4 °C 1008.2 hPa 0.0 Km/h --- 0.2 mm  10.3 °C 12.2 °C
Monte Piana ARPAV (BL) 30/05/24 04.00 4.5 °C 97 % 4.1 °C  hPa 10.4 Km/h SSW 0.0 mm  4.5 °C 4.8 °C
Monte Rufeno (VT) 30/05/24 04.49 15.8 °C 90 % 14.2 °C 1007.2 hPa 11.2 Km/h NNW 0.0 mm  15.1 °C 16.3 °C
Monte Scabro di Plan (BZ) 30/05/24 04.30 0.7 °C 100 % 0.7 °C  hPa 4.7 Km/h SW 0.0 mm  0.5 °C 1.2 °C
Monte Summano ARPAV (VI) 30/05/24 04.30 14.4 °C 91 % 12.9 °C  hPa 0.0 Km/h 2.2 mm  14.4 °C 15.8 °C
Monte Tomba ARPAV (VR) 30/05/24 04.00 8.5 °C 94 % 7.6 °C  hPa 4.7 Km/h SSE 0.0 mm  8.5 °C 9.1 °C
Montebelluna Loc. Contea ARPAV (TV) 30/05/24 04.30 16.2 °C  %  °C  hPa 0.0 Km/h 0.0 mm  16.1 °C 16.9 °C
Montecchio Maggiore Sant'Urbano (VI) 30/05/24 04.44 17.7 °C 78 % 13.8 °C 1006.9 hPa 4.6 Km/h N 0.0 mm  17.3 °C 19.1 °C
Montecchio Precalcino ARPAV (VI) 30/05/24 04.30 16.4 °C 88 % 14.4 °C  hPa 2.2 Km/h NW 0.0 mm  16.0 °C 16.5 °C
Montegalda ARPAV (VI) 30/05/24 04.30 17.4 °C 91 % 15.9 °C  hPa 2.9 Km/h NNE 0.0 mm  16.7 °C 18.6 °C
Monti Alti di Ornella ARPAV (BL) 30/05/24 04.00 4.5 °C 94 % 3.6 °C  hPa 5.8 Km/h SSE 0.0 mm  4.5 °C 5.2 °C
Montorio (VR) 30/05/24 04.34 17.9 °C 84 % 15.2 °C 1009.8 hPa 0.0 Km/h NNW 0.0 mm  17.6 °C 19.7 °C
Montorso Vicentino (VI) 30/05/24 04.49 16.2 °C 82 % 13.1 °C 1007.6 hPa 0.0 Km/h NNW 0.0 mm  15.8 °C 17.9 °C
Morbegno (SO) 30/05/24 04.49 17.1 °C 86 % 14.7 °C 1038.5 hPa 1.6 Km/h SW 1.3 mm  17.1 °C 19.7 °C
Musigliano (PI) 30/05/24 04.44 17.8 °C 91 % 16.3 °C 1009.8 hPa 0.0 Km/h SE 0.0 mm  17.7 °C 19.4 °C
Naturno (BZ) 30/05/24 04.40 12.9 °C 100 % 12.9 °C 1010.3 hPa 5.8 Km/h WSW 1.3 mm  12.9 °C 14.3 °C
Nervesa Della Battaglia ARPAV (TV) 30/05/24 04.30 16.9 °C  %  °C  hPa 0.0 Km/h 0.0 mm  15.6 °C 16.9 °C
Nichelino (TO) 30/05/24 04.10 18.3 °C 85 % 15.8 °C 1008.8 hPa 0.0 Km/h NNE 0.0 mm  18.3 °C 21.0 °C
Nova Levante (BZ) 30/05/24 04.30 10.6 °C 100 % 10.6 °C 1009.7 hPa 0.0 Km/h --- 0.4 mm  10.6 °C 11.3 °C
Nova Ponente (BZ) 30/05/24 04.30 10.3 °C 94 % 9.4 °C 1007.6 hPa 7.2 Km/h WSW 0.0 mm  10.3 °C 11.0 °C
Nova Ponente Obereggen (BZ) 30/05/24 04.40 6.5 °C 88 % 4.7 °C  hPa 6.8 Km/h SE 0.0 mm  6.3 °C 6.9 °C
Noventa di Piave - Grassaga ARPAV (VE) 30/05/24 04.30 15.7 °C 100 % 15.7 °C  hPa 2.2 Km/h N 0.0 mm  15.7 °C 16.8 °C
Novezzina (VR) 30/05/24 04.30 12.2 °C 91 % 10.6 °C 1012.5 hPa 0.0 Km/h N 0.0 mm  9.8 °C 12.4 °C
Oppeano (VR) 23/05/24 14.45 25.3 °C 45 % 12.5 °C 1011.1 hPa 0.0 Km/h SE 0.3 mm  12.3 °C 25.8 °C
Oppeano2 (VR) 25/05/24 06.58 16.3 °C 81 % 13.0 °C 1017.2 hPa 0.1 Km/h SE 0.0 mm  0.0 °C 0.0 °C
Ora (BZ) 30/05/24 04.40 17.3 °C 89 % 15.5 °C 1007.8 hPa 0.0 Km/h --- 0.0 mm  17.3 °C 20.5 °C
Oristano (OR) 30/05/24 04.49 18.2 °C 85 % 15.6 °C 1011.9 hPa 0.0 Km/h W 0.0 mm  16.8 °C 18.7 °C
Ortonovo (SP) 30/05/24 04.45 16.5 °C 94 % 15.5 °C 1026.9 hPa 1.0 Km/h WNW 0.0 mm  15.6 °C 17.3 °C
Ospedaletto Euganeo ARPAV (PD) 30/05/24 04.30 16.3 °C 93 % 15.2 °C  hPa 4.3 Km/h NE 0.0 mm  16.3 °C 18.4 °C
Ovaro loc. Liariis (UD) 30/05/24 04.30 13.1 °C 89 % 11.3 °C 1009.4 hPa 0.0 Km/h ENE 0.0 mm  12.9 °C 14.4 °C
Pace del Mela (ME) 30/05/24 04.45 16.8 °C 83 % 13.9 °C 1009.8 hPa 1.0 Km/h S 0.0 mm  16.0 °C 18.0 °C
Padergnone (TN) 30/05/24 04.45 16.0 °C 91 % 14.5 °C 1007.4 hPa 0.0 Km/h SSW 0.0 mm  15.0 °C 16.1 °C
Paganella loc. Malga Terlago (TN) 30/05/24 04.15 7.5 °C 94 % 6.6 °C  hPa 0.0 Km/h --- 0.0 mm  7.4 °C 7.9 °C
Palù di Zevio (VR) 30/05/24 04.45 15.9 °C 95 % 15.1 °C 1009.0 hPa 6.8 Km/h ESE 0.0 mm  15.9 °C 16.7 °C
Parella (TO) 30/05/24 04.45 17.6 °C 89 % 15.8 °C 1007.0 hPa 0.0 Km/h NW 0.0 mm  17.3 °C 19.2 °C
Passo Brocon (TN) 30/05/24 04.30 8.0 °C 95 % 7.2 °C  hPa 4.3 Km/h WNW 0.0 mm  7.7 °C 8.6 °C
Passo Campogrosso ARPAV (VI) 30/05/24 04.00 9.6 °C 93 % 8.5 °C  hPa 9.4 Km/h ENE 0.0 mm  9.4 °C 9.7 °C
Passo di Costalunga (BZ) 30/05/24 04.30 8.7 °C 90 % 7.2 °C 1008.3 hPa 11.5 Km/h E 0.0 mm  7.7 °C 9.1 °C
Passo Falzarego ARPAV (BL) 30/05/24 04.00 6.4 °C 92 % 5.2 °C 1007.8 hPa 2.5 Km/h NW 0.0 mm  6.3 °C 6.7 °C
Passo Monte Croce Comelico ARPAV (BL) 30/05/24 04.30 8.1 °C 99 % 8.0 °C  hPa 7.2 Km/h SE 0.0 mm  8.1 °C 8.8 °C
Passo Pian Delle Fugazze (TN) 30/05/24 04.30 10.9 °C 93 % 9.8 °C  hPa 13.3 Km/h SW 0.2 mm  9.9 °C 11.6 °C
Passo Rolle (TN) 30/05/24 04.30 5.9 °C 100 % 5.9 °C  hPa 15.5 Km/h S 0.8 mm  5.7 °C 6.5 °C
Passo Santa Caterina ARPAV (VI) 30/05/24 04.30 13.9 °C 82 % 10.9 °C  hPa 2.9 Km/h SE 0.2 mm  13.9 °C 15.0 °C
Passo Sommo (TN) 30/05/24 04.30 10.3 °C 94 % 9.4 °C  hPa 1.4 Km/h ESE 0.0 mm  9.5 °C 10.8 °C
Passo Tonale (TN) 30/05/24 04.30 6.8 °C 92 % 5.6 °C  hPa 7.2 Km/h WSW 0.2 mm  6.8 °C 7.6 °C
Passo Valles (TN) 30/05/24 04.30 5.9 °C 76 % 2.0 °C  hPa 7.2 Km/h SSW 0.0 mm  5.4 °C 6.2 °C
Passo Xomo ARPAV (VI) 30/05/24 04.30 11.5 °C 89 % 9.7 °C  hPa 3.2 Km/h SW 0.4 mm  11.5 °C 12.4 °C
Pastrengo Corné (VR) 30/05/24 04.48 16.0 °C 89 % 14.2 °C 1005.6 hPa 0.0 Km/h W 0.0 mm  15.8 °C 18.1 °C
Pecetto Torinese (TO) 30/05/24 04.45 16.1 °C 90 % 14.4 °C 1006.0 hPa 0.0 Km/h NNW 0.0 mm  16.1 °C 18.4 °C
Pedara (CT) 28/05/24 03.56 11.4 °C 83 % 8.6 °C 1013.1 hPa 0.0 Km/h --- 0.0 mm  11.3 °C 13.0 °C
Pedemonte (VR) 30/05/24 04.45 16.7 °C 85 % 14.2 °C 1007.1 hPa 0.0 Km/h N 0.0 mm  16.7 °C 18.1 °C
Peio (TN) 30/05/24 04.30 8.5 °C 92 % 7.3 °C  hPa 1.1 Km/h N 0.4 mm  8.4 °C 9.9 °C
Pennes (BZ) 30/05/24 04.40 9.0 °C 100 % 9.0 °C 1009.2 hPa 0.0 Km/h --- 0.7 mm  8.7 °C 9.2 °C
Pennes Val Tramin (BZ) 30/05/24 04.40 5.6 °C 99 % 5.5 °C  hPa 0.0 Km/h WNW 0.0 mm  4.1 °C 5.8 °C
Perarolo ARPAV (BL) 30/05/24 04.30 12.5 °C 100 % 12.5 °C  hPa 1.8 Km/h SSE 0.2 mm  12.5 °C 13.2 °C
Pergine Valsugana (TN) 30/05/24 04.30 13.7 °C 97 % 13.2 °C  hPa 1.8 Km/h NNW 0.8 mm  13.5 °C 15.6 °C
Perugia San Mariano (PG) 30/05/24 04.45 16.2 °C 82 % 13.1 °C 1010.8 hPa 0.0 Km/h --- 0.0 mm  16.2 °C 18.8 °C
Pescantina (VR) 30/05/24 04.45 16.4 °C 84 % 13.8 °C 1008.9 hPa 0.0 Km/h N 0.0 mm  16.2 °C 18.5 °C
Peschiera del Garda (VR) 30/05/24 04.45 16.9 °C 87 % 14.4 °C 1007.8 hPa 0.0 Km/h E 0.0 mm  16.8 °C 18.6 °C
Peschiera del Garda ARPAV (VR) 30/05/24 04.30 17.2 °C 89 % 15.4 °C  hPa 4.0 Km/h E 0.0 mm  16.8 °C 17.6 °C
Pian Cansiglio Agriturismo Le Code (BL) 30/05/24 04.44 9.3 °C 97 % 8.7 °C 0.0 hPa 0.0 Km/h - 0.0 mm  9.2 °C 10.0 °C
Pian Cansiglio Loc. Casera Le Rotte (TV) 30/05/24 04.45 10.6 °C 97 % 10.1 °C 1007.8 hPa 0.0 Km/h SW 0.0 mm  10.1 °C 11.1 °C
Pian Cansiglio Loc. I Bech - Le Code (BL) 30/05/24 04.26 9.1 °C 99 % 9.0 °C 0.0 hPa 0.0 Km/h - 0.0 mm  9.0 °C 10.1 °C
Pian Cansiglio Loc. Valmenera (BL) 30/05/24 04.45 9.5 °C 96 % 8.8 °C 0.0 hPa 0.0 Km/h - 0.0 mm  9.3 °C 10.2 °C
Pian Cansiglio loc. Veneto Agricoltura (BL) 30/05/24 04.20 9.6 °C 0 % 0.0 °C 0.0 hPa 0.0 Km/h - 0.0 mm  9.5 °C 10.3 °C
Pian Cansiglio Malga Col dei S'cios (PN) 30/05/24 04.35 10.1 °C 94 % 8.9 °C 0.0 hPa 0.0 Km/h - 0.0 mm  9.8 °C 11.3 °C
Pian Cansiglio Malga Filippon (BL) 30/05/24 04.40 9.4 °C 98 % 9.0 °C 0.0 hPa 0.0 Km/h - 0.0 mm  8.5 °C 10.0 °C
Pian Cansiglio Rifugio Carlo e Massimo Semenza - CAI (BL) 30/05/24 04.37 5.4 °C 99 % 5.4 °C 0.0 hPa 0.0 Km/h - 0.0 mm  5.4 °C 6.1 °C
Piana di Marcesina - Rendole ARPAV (VI) 30/05/24 04.30 7.8 °C 100 % 7.8 °C  hPa 1.8 Km/h NW 0.0 mm  5.0 °C 7.8 °C
Pinzolo (TN) 30/05/24 04.30 12.7 °C 93 % 11.6 °C  hPa 0.7 Km/h WSW 0.0 mm  12.5 °C 13.6 °C
Piovà Massaia (AT) 30/05/24 04.48 15.8 °C 92 % 14.5 °C 1007.9 hPa 0.0 Km/h ENE 0.0 mm  15.7 °C 18.1 °C
Piraino contr. Fiumara (ME) 30/05/24 04.40 15.8 °C 82 % 12.7 °C 1011.7 hPa 0.0 Km/h SSW 0.0 mm  15.7 °C 17.1 °C
Plan (BZ) 30/05/24 04.40 7.5 °C 97 % 7.1 °C 1009.1 hPa 4.7 Km/h SSE 0.0 mm  6.1 °C 7.4 °C
Plata in Passiria (BZ) 30/05/24 04.30 10.8 °C 90 % 9.2 °C 1009.0 hPa 4.7 Km/h S 0.0 mm  10.8 °C 12.2 °C
Plose (BZ) 30/05/24 04.40 2.6 °C 100 % 2.6 °C  hPa 20.9 Km/h SW 0.0 mm  2.3 °C 3.8 °C
Pocenia (UD) 30/05/24 04.45 15.4 °C 92 % 14.1 °C 1007.5 hPa 0.0 Km/h E 0.0 mm  15.1 °C 16.6 °C
Pojana Maggiore Cagnano (VI) 30/05/24 04.45 16.8 °C 91 % 15.3 °C 1007.0 hPa 2.9 Km/h NE 0.0 mm  16.7 °C 18.9 °C
Pomezia (RM) 30/05/24 04.49 16.3 °C 82 % 13.2 °C 1008.7 hPa 6.4 Km/h ESE 0.0 mm  16.2 °C 19.4 °C
Ponte di Piave ARPAV (TV) 30/05/24 04.30 14.6 °C 100 % 14.6 °C  hPa 3.2 Km/h NE 0.0 mm  14.6 °C 14.9 °C
Ponte San Nicolò (PD) 30/05/24 04.47 16.9 °C 85 % 14.4 °C 1009.1 hPa 0.0 Km/h WNW 0.0 mm  16.9 °C 19.2 °C
Ponte San Pellegrino (MO) 30/05/24 04.48 15.3 °C 96 % 14.7 °C 1009.5 hPa 0.0 Km/h NNE 0.0 mm  15.2 °C 18.8 °C
Pontedassio fraz. Bestagno (IM) 30/05/24 04.30 15.9 °C 93 % 14.8 °C 0.0 hPa 0.0 Km/h S 0.0 mm  15.7 °C 17.3 °C
Pordenone (PN) 30/05/24 04.40 18.1 °C 83 % 15.1 °C 1008.0 hPa 0.0 Km/h NE 0.0 mm  17.7 °C 19.5 °C
Porto Tolle - Pradon ARPAV (RO) 30/05/24 04.30 14.8 °C 99 % 14.6 °C 1008.2 hPa 3.2 Km/h NNW 0.0 mm  14.8 °C 17.9 °C
Portogruaro - Lison ARPAV (VE) 30/05/24 04.30 15.3 °C 100 % 15.3 °C  hPa 2.5 Km/h W 0.0 mm  15.3 °C 16.4 °C
Posina loc. Contrà Boni (VI) 30/05/24 04.45 13.1 °C 95 % 12.3 °C 1011.2 hPa 0.0 Km/h ENE 0.0 mm  12.6 °C 13.7 °C
Pozzolo Formigaro (AL) 30/05/24 04.48 16.9 °C 83 % 14.0 °C 1009.0 hPa 2.2 Km/h SSE 0.0 mm  16.9 °C 18.1 °C
Pozzonovo (PD) 30/05/24 04.46 16.9 °C 6 % -21.0 °C 1008.0 hPa 0.0 Km/h N 0.0 mm  16.2 °C 19.1 °C
Prati di Plan (BZ) 30/05/24 04.40 5.7 °C 90 % 4.2 °C  hPa 0.7 Km/h ESE 0.0 mm  5.3 °C 6.2 °C
Predoi (BZ) 30/05/24 04.40 7.8 °C 100 % 7.8 °C 1010.4 hPa 2.2 Km/h NNW 4.2 mm  7.5 °C 8.6 °C
Predoi Malga Merbe (BZ) 30/05/24 04.40 4.7 °C 100 % 4.7 °C  hPa 6.5 Km/h S 0.0 mm  4.7 °C 7.8 °C
Predoi Pizzo Lungo (BZ) 30/05/24 04.40 -1.3 °C 100 % -1.3 °C  hPa 12.6 Km/h NW 0.0 mm  -1.5 °C -0.9 °C
Proves Alpe di Brez (BZ) 30/05/24 04.40 4.5 °C 97 % 4.1 °C  hPa 2.2 Km/h WNW 0.0 mm  4.3 °C 5.7 °C
Ra Valles ARPAV (BL) 30/05/24 04.00 2.3 °C 97 % 1.9 °C  hPa 16.9 Km/h SE 0.0 mm  2.3 °C 3.0 °C
Rabbi loc. San Bernardo (TN) 30/05/24 04.30 10.5 °C 97 % 10.0 °C  hPa 1.1 Km/h ENE 0.0 mm  9.4 °C 10.8 °C
Racines Malga Wasserfaller (BZ) 30/05/24 04.40 6.6 °C 100 % 6.6 °C  hPa 3.2 Km/h SE 0.0 mm  6.4 °C 7.5 °C
Recoaro Mille ARPAV (VI) 30/05/24 04.30 11.6 °C 90 % 10.0 °C  hPa 3.2 Km/h ENE 4.8 mm  11.6 °C 12.3 °C
Redagno (BZ) 30/05/24 04.40 10.1 °C 83 % 7.3 °C 1008.8 hPa 4.3 Km/h S 0.0 mm  9.2 °C 10.5 °C
Reggello (FI) 30/05/24 04.45 13.2 °C 92 % 12.0 °C 1012.5 hPa 6.0 Km/h SW 0.0 mm  13.2 °C 16.8 °C
Renon Siffian (BZ) 30/05/24 04.40 12.7 °C 89 % 10.9 °C 1008.6 hPa 1.1 Km/h NE 0.0 mm  13.0 °C 14.4 °C
Riccione (RN) 30/05/24 04.43 15.6 °C 88 % 13.6 °C 1006.8 hPa 0.0 Km/h SSW 0.0 mm  15.6 °C 17.3 °C
Ridanna (BZ) 30/05/24 04.40 9.0 °C 95 % 8.2 °C 1011.9 hPa 0.0 Km/h --- 0.6 mm  9.0 °C 10.5 °C
Rifugio Altissimo Damiano Chiesa (TN) 30/05/24 04.46 5.9 °C 98 % 5.6 °C 789.9 hPa 0.0 Km/h SE 0.2 mm  5.8 °C 6.5 °C
Rifugio Castelberto (VR) 26/05/24 19.50 9.5 °C 77 % 5.7 °C 1020.3 hPa 0.0 Km/h SSW 0.0 mm  4.8 °C 11.9 °C
Rifugio Citta di Fiume (BL) 30/05/24 04.48 7.1 °C 96 % 6.5 °C 1006.8 hPa 0.0 Km/h WSW 0.0 mm  7.1 °C 7.6 °C
Rifugio Città di Vittorio Veneto (TV) 30/05/24 04.40 8.6 °C 99 % 8.6 °C 0.0 hPa 0.0 Km/h - 0.0 mm  8.6 °C 9.8 °C
Rifugio Dolomieu al Dolada (BL) 30/05/24 04.31 9.2 °C 95 % 8.3 °C 0.0 hPa 0.0 Km/h - 0.0 mm  9.1 °C 9.6 °C
Rifugio la Guardia ARPAV (VI) 30/05/24 04.30 11.1 °C 92 % 9.8 °C  hPa 5.0 Km/h N 2.2 mm  11.1 °C 12.0 °C
Rifugio Marchetti (TN) 30/05/24 04.45 6.4 °C 100 % 6.4 °C 1017.4 hPa 21.1 Km/h WSW 0.0 mm  6.2 °C 7.2 °C
Rifugio Primaneve (VR) 30/05/24 04.41 7.9 °C 98 % 7.6 °C 1009.1 hPa 18.8 Km/h SSE 3.4 mm  7.3 °C 8.7 °C
Rifugio Telegrafo (VR) 30/05/24 04.46 5.1 °C 98 % 4.8 °C 779.3 hPa 14.5 Km/h W 0.2 mm  5.0 °C 5.6 °C
Rimini (RN) 30/05/24 04.40 16.1 °C 83 % 13.2 °C 1009.1 hPa 1.6 Km/h S 0.0 mm  16.1 °C 18.5 °C
Rio Bianco Malga Fadner (BZ) 30/05/24 04.30 4.0 °C 95 % 3.3 °C  hPa 0.0 Km/h SSE 0.0 mm  4.0 °C 6.7 °C
Riva di Tures (BZ) 30/05/24 04.40 6.6 °C 100 % 6.6 °C 1010.9 hPa 2.2 Km/h ESE 4.3 mm  6.2 °C 6.8 °C
Rivalta sul Mincio (MN) 30/05/24 04.45 16.1 °C 93 % 14.9 °C 1007.1 hPa 4.8 Km/h E 0.0 mm  16.1 °C 18.7 °C
Rocca Priora (RM) 30/05/24 04.35 14.2 °C 83 % 11.3 °C 1011.8 hPa 0.0 Km/h W 0.0 mm  14.1 °C 15.6 °C
Roncà (VR) 30/05/24 04.34 17.3 °C 88 % 15.3 °C 1003.5 hPa 0.2 Km/h N 0.0 mm  17.1 °C 18.5 °C
Ronciglione Centro (VT) 30/05/24 04.49 14.5 °C 95 % 13.7 °C 1010.5 hPa 1.3 Km/h NE 0.0 mm  14.4 °C 16.4 °C
Ronciglione Poggio Cavaliere (VT) 30/05/24 04.45 14.2 °C 98 % 13.9 °C 1013.4 hPa 0.0 Km/h N/A 0.0 mm  14.2 °C 15.2 °C
Rosà ARPAV (VI) 30/05/24 04.30 16.5 °C 89 % 14.7 °C  hPa 1.4 Km/h NE 0.0 mm  16.2 °C 17.2 °C
Rosolina - Po di Tramontana ARPAV (RO) 30/05/24 04.30 15.3 °C 100 % 15.3 °C  hPa 1.1 Km/h ESE 0.0 mm  15.3 °C 18.3 °C
Rossano Veneto (VI) 30/05/24 04.45 17.5 °C 81 % 14.4 °C 1009.0 hPa 0.0 Km/h N 0.0 mm  17.5 °C 19.4 °C
Roverchiara ARPAV (VR) 30/05/24 04.30 16.1 °C 100 % 16.1 °C  hPa 5.4 Km/h NE 0.0 mm  15.9 °C 18.1 °C
Rovereto (TN) 30/05/24 04.30 16.4 °C 81 % 13.1 °C  hPa 0.7 Km/h ESE 0.0 mm  16.4 °C 17.8 °C
Rovereto loc. Malga Zugna (TN) 30/05/24 04.30 8.9 °C 96 % 8.3 °C  hPa 3.6 Km/h S 0.0 mm  8.4 °C 9.0 °C
Rovina di Cancia ARPAV (BL) 30/05/24 04.30 10.1 °C  %  °C  hPa 0.0 Km/h 0.0 mm  9.9 °C 10.8 °C
Rumo loc. Lanza (TN) 30/05/24 04.30 11.6 °C 90 % 10.0 °C  hPa 2.2 Km/h NW 0.0 mm  11.5 °C 12.2 °C
S. Giovanni Ilarione (VR) 30/05/24 04.34 17.0 °C 84 % 14.2 °C 1007.2 hPa 4.0 Km/h NNW 0.0 mm  15.4 °C 17.6 °C
S. Giovanni Ilarione2 (VR) 30/05/24 04.46 16.8 °C 89 % 15.0 °C 1007.3 hPa 0.0 Km/h WNW 0.0 mm  16.2 °C 17.2 °C
S. Giovanni Lupatoto (VR) 30/05/24 04.46 18.0 °C 83 % 15.1 °C 1008.6 hPa 0.0 Km/h E 0.0 mm  17.9 °C 19.3 °C
S. Giovanni Rotondo (FG) 29/05/24 20.59 17.1 °C 80 % 13.6 °C 1011.8 hPa 0.0 Km/h S 5.8 mm  14.2 °C 22.6 °C
S. Lorenzo di Vittorio Veneto (TV) 30/05/24 04.34 17.1 °C 82 % 14.1 °C 1007.1 hPa 0.0 Km/h NW 0.0 mm  17.1 °C 18.3 °C
S. Lorenzo Nuovo (VT) 30/05/24 04.43 15.4 °C 97 % 14.9 °C 1010.9 hPa 0.0 Km/h SSE 0.0 mm  15.2 °C 17.0 °C
S. Maddalena in Casies (BZ) 30/05/24 04.40 8.5 °C 100 % 8.5 °C 1013.7 hPa 7.2 Km/h NE 0.1 mm  7.5 °C 9.1 °C
S. Maria di Zevio Loc. 3 Ponti (VR) 30/05/24 04.45 17.2 °C 88 % 15.2 °C 1009.1 hPa 3.2 Km/h E 0.0 mm  16.7 °C 18.3 °C
S. Maria Maddalena (RO) 30/05/24 04.46 17.2 °C 86 % 14.9 °C 1006.9 hPa 2.1 Km/h NE 0.0 mm  16.7 °C 19.6 °C
S. Martino in Badia (BZ) 30/05/24 04.40 9.6 °C 99 % 9.5 °C 1012.3 hPa 2.9 Km/h N 0.6 mm  9.1 °C 9.8 °C
S. Martino in Passiria (BZ) 30/05/24 04.30 13.4 °C 100 % 13.4 °C 1009.6 hPa 3.6 Km/h NNE 2.6 mm  12.9 °C 14.2 °C
S. Martino Lupari (PD) 30/05/24 04.40 18.1 °C 86 % 15.7 °C 1009.1 hPa 0.0 Km/h --- 0.0 mm  18.1 °C 19.6 °C
S. Mauro di Saline (VR) 30/05/24 04.44 16.1 °C 83 % 13.2 °C 1009.4 hPa 4.3 Km/h ENE 0.0 mm  13.5 °C 16.1 °C
S. Rocco di Villabalzana (VI) 30/05/24 04.47 16.2 °C 86 % 13.9 °C 1007.5 hPa 0.0 Km/h W 0.0 mm  16.2 °C 18.9 °C
S. Valburga (BZ) 30/05/24 04.40 10.1 °C 99 % 9.9 °C 1009.6 hPa 4.7 Km/h WSW 0.9 mm  10.0 °C 11.3 °C
S. Valentino alla Muta (BZ) 30/05/24 04.40 8.7 °C 100 % 8.7 °C 1008.2 hPa 6.5 Km/h SSW 0.3 mm  8.7 °C 9.9 °C
S. Zeno di Mont. Prada (VR) 30/05/24 04.30 13.3 °C 91 % 11.8 °C 1010.8 hPa 0.0 Km/h SSW 0.0 mm  11.9 °C 13.4 °C
S. Zeno di Mont. 2 (VR) 30/05/24 04.44 16.3 °C 77 % 12.3 °C 1005.5 hPa 4.2 Km/h SW 0.0 mm  16.3 °C 17.9 °C
Sacile (PN) 30/05/24 04.39 17.7 °C 81 % 14.4 °C 1009.1 hPa 3.2 Km/h NE 0.0 mm  17.4 °C 19.2 °C
Sacile2 (PN) 30/05/24 04.45 17.3 °C 85 % 14.7 °C 1008.9 hPa 0.0 Km/h N 0.0 mm  16.7 °C 17.8 °C
Salcedo (VI) 30/05/24 04.45 17.0 °C 79 % 13.3 °C 1007.0 hPa 0.0 Km/h SSE 0.0 mm  17.0 °C 18.1 °C
Salorno (BZ) 30/05/24 04.40 16.8 °C 100 % 16.8 °C 1009.0 hPa 8.6 Km/h W 0.0 mm  16.7 °C 17.6 °C
San Benedetto del Tronto (AP) 30/05/24 04.47 18.7 °C 80 % 15.2 °C 1009.0 hPa 0.0 Km/h SW 0.0 mm  17.2 °C 19.6 °C
San Bortolo ARPAV (VR) 30/05/24 04.30 13.6 °C  %  °C  hPa 7.6 Km/h NNE 0.0 mm  13.5 °C 14.0 °C
San Genesio (BZ) 30/05/24 04.40 13.8 °C 89 % 12.0 °C 1008.2 hPa 3.6 Km/h W 0.0 mm  13.1 °C 14.0 °C
San Giacomo di Veglia (TV) 30/05/24 04.32 16.3 °C 91 % 14.5 °C 0.0 hPa 0.0 Km/h - 0.0 mm  16.3 °C 17.4 °C
San Giovanni la Punta Trappeto (CT) 30/05/24 04.45 17.4 °C 81 % 14.2 °C 1010.5 hPa 4.8 Km/h ENE 0.0 mm  16.7 °C 18.3 °C
San Lorenzo In Banale loc. Pergoletti (TN) 30/05/24 04.30 13.6 °C 84 % 10.9 °C  hPa 3.2 Km/h WSW 0.0 mm  13.4 °C 14.7 °C
San Martino di Castrozza (TN) 30/05/24 04.00 9.2 °C 99 % 9.1 °C  hPa 2.2 Km/h E 0.2 mm  8.8 °C 9.6 °C
San Pietro di Rosà (VI) 30/05/24 04.45 16.9 °C 84 % 14.2 °C 1012.4 hPa 0.0 Km/h NNE 0.0 mm  16.7 °C 18.7 °C
San Pietro in Cariano (VR) 30/05/24 04.34 16.8 °C 86 % 14.4 °C 1006.1 hPa 1.9 Km/h N 0.0 mm  16.8 °C 18.0 °C
San Pietro in Cariano ARPAV (VR) 30/05/24 04.30 15.7 °C 92 % 14.4 °C  hPa 0.0 Km/h 0.0 mm  15.3 °C 16.3 °C
San Vito di Braies (BZ) 30/05/24 04.30 9.1 °C 95 % 8.3 °C 1011.9 hPa 0.0 Km/h --- 0.0 mm  7.0 °C 9.1 °C
San Vito di Negrar (VR) 30/05/24 04.45 16.9 °C 86 % 14.6 °C 1008.6 hPa 0.0 Km/h --- 0.0 mm  16.7 °C 18.3 °C
San Zeno di Mont. Loc. Castello (VR) 30/05/24 04.45 15.4 °C 77 % 11.1 °C 1006.2 hPa 0.0 Km/h NNE 0.0 mm  15.3 °C 16.3 °C
Sant'Apollinare ARPAV (RO) 30/05/24 04.30 15.6 °C 100 % 15.6 °C  hPa 2.9 Km/h NE 0.0 mm  15.4 °C 16.7 °C
Santa Maria di Negrar (VR) 30/05/24 04.34 17.2 °C 82 % 14.1 °C 1009.1 hPa 0.0 Km/h NNE 0.0 mm  16.9 °C 18.4 °C
Santarcangelo di Romagna (RN) 30/05/24 04.49 15.9 °C 82 % 12.8 °C 1002.5 hPa 6.1 Km/h WNW 0.0 mm  15.9 °C 17.5 °C
Santo Stefano di Cadore ARPAV (BL) 30/05/24 04.30 11.4 °C 98 % 11.1 °C  hPa 1.8 Km/h SSE 0.0 mm  11.4 °C 12.4 °C
Sappada ARPAV (BL) 30/05/24 04.30 9.5 °C 100 % 9.5 °C  hPa 2.5 Km/h NE 0.0 mm  9.5 °C 10.4 °C
Sarcedo (VI) 30/05/24 04.45 16.8 °C 84 % 14.1 °C 1006.1 hPa 0.0 Km/h NNW 0.0 mm  15.8 °C 18.4 °C
Sarentino (BZ) 30/05/24 04.40 12.1 °C 96 % 11.5 °C 1008.9 hPa 0.7 Km/h N 0.9 mm  12.0 °C 13.1 °C
Schifflange (LUX) 30/05/24 04.44 11.9 °C 97 % 11.4 °C 990.9 hPa 2.1 Km/h NW 8.6 mm  11.9 °C 13.6 °C
Schio (VI) 30/05/24 03.45 17.0 °C 87 % 14.8 °C 1009.7 hPa 3.2 Km/h WNW 2.8 mm  16.3 °C 17.3 °C
Selva dei Molini (BZ) 30/05/24 04.30 9.4 °C 100 % 9.4 °C 1011.3 hPa 0.0 Km/h --- 5.9 mm  9.4 °C 10.3 °C
Selva di V. Gardena (BZ) 30/05/24 04.40 7.9 °C 96 % 7.3 °C 1009.6 hPa 0.0 Km/h --- 0.1 mm  7.1 °C 8.5 °C
Senales Finale (BZ) 30/05/24 04.40 6.3 °C 98 % 6.0 °C  hPa 0.0 Km/h --- 0.0 mm  6.3 °C 7.8 °C
Senales Teufelsegg (BZ) 30/05/24 04.40 -0.7 °C 99 % -0.8 °C  hPa 0.0 Km/h --- 0.0 mm  -0.7 °C -0.6 °C
Senales Vernago (BZ) 30/05/24 04.30 7.9 °C 100 % 7.9 °C 1010.2 hPa 0.0 Km/h --- 0.1 mm  7.9 °C 9.3 °C
Seremange Erzange (Moselle) 26/05/24 19.15 21.0 °C 63 % 13.7 °C 1016.3 hPa 1.5 Km/h NW 0.0 mm  10.8 °C 21.8 °C
Sesto (BZ) 30/05/24 04.40 11.1 °C 92 % 9.8 °C 1006.7 hPa 10.4 Km/h SSE 0.1 mm  10.5 °C 11.7 °C
Sesto Prati di Croda Rossa (BZ) 30/05/24 04.40 6.2 °C 95 % 5.5 °C  hPa 7.9 Km/h SE 0.0 mm  6.1 °C 6.9 °C
Silandro (BZ) 30/05/24 04.40 12.4 °C 97 % 11.9 °C 1009.3 hPa 4.3 Km/h S 2.3 mm  12.4 °C 14.2 °C
Sinnai (CA) 30/05/24 04.46 17.9 °C 83 % 15.0 °C 1011.3 hPa 4.8 Km/h NNW 0.0 mm  17.8 °C 18.9 °C
Soave Borgo Bassano (VR) 30/05/24 04.49 19.4 °C 75 % 14.9 °C 1007.9 hPa 6.4 Km/h ENE 0.0 mm  19.0 °C 20.4 °C
Solda (BZ) 30/05/24 04.40 5.2 °C 100 % 5.2 °C 1008.7 hPa 0.0 Km/h --- 3.4 mm  5.4 °C 6.8 °C
Solda Madriccio (BZ) 30/05/24 04.40 2.0 °C 92 % 0.8 °C  hPa 18.0 Km/h SSW 0.0 mm  1.1 °C 2.6 °C
Sorgà ARPAV (VR) 30/05/24 04.30 16.2 °C 100 % 16.2 °C  hPa 7.9 Km/h E 0.0 mm  16.2 °C 17.6 °C
Soriso (NO) 30/05/24 04.50 16.1 °C 96 % 15.4 °C 1006.9 hPa 1.6 Km/h WSW 5.8 mm  15.9 °C 17.4 °C
St-Etienne en Dévoluy (Hautes Alpes) 30/05/24 02.10 19.2 °C 63 % 11.8 °C 0.0 hPa 0.0 Km/h - 0.0 mm  19.2 °C 20.3 °C
Stiore - Monteveglio (BO) 30/05/24 04.49 14.3 °C 86 % 12.0 °C 1004.9 hPa 4.8 Km/h SE 0.0 mm  14.3 °C 16.2 °C
Tambre Loc. Frassinei (BL) 30/05/24 04.33 13.0 °C 88 % 10.6 °C 0.0 hPa 0.0 Km/h - 0.0 mm  13.0 °C 14.1 °C
Taranto (TA) 30/05/24 04.49 17.5 °C 84 % 14.8 °C 1010.3 hPa 1.7 Km/h NE 0.0 mm  17.4 °C 19.8 °C
Tarmassia (VR) 30/05/24 04.46 16.1 °C 90 % 14.5 °C 1008.9 hPa 3.3 Km/h E 0.0 mm  15.8 °C 17.9 °C
Teolo ARPAV (PD) 30/05/24 04.30 17.5 °C 86 % 15.1 °C 1009.2 hPa 2.9 Km/h N 0.0 mm  16.8 °C 18.1 °C
Terento (BZ) 30/05/24 04.40 8.4 °C 100 % 8.4 °C 1009.9 hPa 11.9 Km/h ENE 8.1 mm  8.3 °C 12.2 °C
Tione (TN) 30/05/24 04.30 13.4 °C 96 % 12.8 °C  hPa 0.4 Km/h SSW 0.0 mm  13.2 °C 14.1 °C
Todi (PG) 30/05/24 04.45 15.1 °C 55 % 6.1 °C 1009.0 hPa 5.0 Km/h ENE 0.0 mm  15.1 °C 17.7 °C
Tombolo (PD) 30/05/24 04.49 17.8 °C 82 % 14.7 °C 1008.5 hPa 0.2 Km/h SSW 0.0 mm  17.7 °C 19.8 °C
Tonadico loc. Castelpietra (TN) 30/05/24 04.30 11.5 °C  %  °C  hPa 0.0 Km/h --- 0.0 mm  11.1 °C 11.6 °C
Torbole Belvedere (TN) 30/05/24 04.30 18.0 °C 75 % 13.5 °C  hPa 3.6 Km/h NE 0.0 mm  17.8 °C 19.4 °C
Tortoreto (TE) 30/05/24 04.49 17.6 °C 84 % 14.9 °C 1008.6 hPa 6.4 Km/h SSW 0.0 mm  17.2 °C 19.0 °C
Trafoi Zaufenkofel (BZ) 30/05/24 04.40 2.7 °C 99 % 2.6 °C  hPa 6.1 Km/h SSW 0.0 mm  2.4 °C 3.5 °C
Trambileno (TN) 30/05/24 04.45 14.0 °C 78 % 10.2 °C 1005.2 hPa 0.0 Km/h ESE 0.0 mm  14.0 °C 15.0 °C
Tremalzo (TN) 30/05/24 04.30 8.9 °C 97 % 8.4 °C  hPa 6.5 Km/h SE 0.0 mm  7.5 °C 9.6 °C
Trento (TN) 30/05/24 04.45 16.9 °C 82 % 13.8 °C 1007.9 hPa 4.8 Km/h WSW 0.2 mm  16.9 °C 20.1 °C
Trento loc. Laste (TN) 30/05/24 04.30 15.9 °C 87 % 13.7 °C  hPa 4.3 Km/h ENE 0.8 mm  15.7 °C 18.2 °C
Trento loc. Roncafort (TN) 30/05/24 04.30 17.2 °C 80 % 13.7 °C  hPa 5.4 Km/h SSE 0.0 mm  17.0 °C 18.6 °C
Treviso (TV) 30/05/24 04.45 15.5 °C 88 % 13.5 °C 1008.3 hPa 0.0 Km/h NE 0.0 mm  15.5 °C 17.2 °C
Treviso ARPAV (TV) 30/05/24 04.30 15.9 °C 100 % 15.9 °C 1009.2 hPa 0.0 Km/h 0.0 mm  15.7 °C 16.5 °C
Tribano ARPAV (PD) 30/05/24 04.30 16.1 °C 100 % 16.1 °C  hPa 2.2 Km/h NNW 0.0 mm  15.6 °C 18.0 °C
Tubre (BZ) 30/05/24 04.40 10.1 °C 100 % 10.1 °C 1008.5 hPa 4.0 Km/h SW 0.0 mm  10.1 °C 11.0 °C
Turcati ARPAV (VI) 30/05/24 04.30 13.1 °C 91 % 11.7 °C  hPa 0.0 Km/h 3.6 mm  13.1 °C 14.3 °C
Ultimo Cima di Fontana Bianca (BZ) 30/05/24 04.40 0.0 °C 105 % 0.7 °C  hPa 7.6 Km/h E 0.0 mm  -0.1 °C 0.5 °C
Ultimo Fontana Bianca (BZ) 30/05/24 04.40 6.3 °C 95 % 5.6 °C 1009.8 hPa 0.0 Km/h --- 1.4 mm  5.2 °C 6.5 °C
Ultimo Pian dei Cavalli (BZ) 30/05/24 04.30 3.0 °C 94 % 2.1 °C  hPa 9.4 Km/h SSW 0.0 mm  2.7 °C 4.5 °C
Val di Vizze San Giacomo (BZ) 30/05/24 04.30 7.5 °C 100 % 7.5 °C 1009.9 hPa 1.8 Km/h ESE 0.0 mm  6.5 °C 7.5 °C
Val Genova loc. Malga Caret (TN) 30/05/24 04.30 7.9 °C 94 % 7.0 °C  hPa 1.1 Km/h WSW 0.0 mm  6.6 °C 8.5 °C
Val Lastaro (VI) 30/05/24 04.35 9.9 °C 24 % -10.0 °C 1008.9 hPa 0.0 Km/h WSW 0.2 mm  7.9 °C 9.9 °C
Val Salatis ARPAV (BL) 30/05/24 04.00 5.9 °C 100 % 5.9 °C  hPa 13.7 Km/h SE 0.0 mm  5.7 °C 6.6 °C
Valdobbiadene San Pietro di Barbozza (TV) 30/05/24 04.45 16.1 °C 84 % 13.4 °C 1010.2 hPa 0.0 Km/h N 0.0 mm  16.1 °C 17.2 °C
Valeggio sul Mincio ARPAV (VR) 30/05/24 04.30 16.1 °C 96 % 15.5 °C  hPa 1.1 Km/h NNW 0.0 mm  16.1 °C 18.4 °C
Valentano (VT) 30/05/24 04.52 16.0 °C 38 % 1.7 °C 1008.0 hPa 4.8 Km/h NE 0.0 mm  15.9 °C 17.9 °C
Valenza (AL) 30/05/24 04.46 17.2 °C 83 % 14.3 °C 1006.0 hPa 1.6 Km/h SSE 0.0 mm  17.2 °C 19.3 °C
Valle del Cadore ARPAV (BL) 30/05/24 04.30 12.1 °C  %  °C  hPa 1.8 Km/h NW 0.0 mm  12.1 °C 13.4 °C
Vallelunga Grub (BZ) 30/05/24 04.40 6.3 °C 100 % 6.3 °C 1008.5 hPa 1.8 Km/h WSW 0.2 mm  6.2 °C 6.8 °C
Valles (BZ) 30/05/24 04.40 8.6 °C 100 % 8.6 °C 1010.8 hPa 1.1 Km/h W 1.8 mm  8.5 °C 9.9 °C
Valli del Pasubio ARPAV (VI) 30/05/24 04.30 13.6 °C 93 % 12.5 °C  hPa 2.2 Km/h NNW 0.8 mm  13.6 °C 14.8 °C
Valli del Pasubio Contrà Pietra (VI) 30/05/24 04.49 13.8 °C 89 % 12.0 °C 1008.9 hPa 0.0 Km/h N 0.6 mm  13.8 °C 15.1 °C
Valli del Pasubio loc. Gisbenti (VI) 30/05/24 04.44 13.6 °C 93 % 12.5 °C 962.3 hPa 0.0 Km/h W 0.8 mm  12.6 °C 14.0 °C
Vandoies (BZ) 30/05/24 04.40 11.1 °C 100 % 11.1 °C 1010.3 hPa 9.7 Km/h E 11.2 mm  11.1 °C 12.6 °C
Vangadizza ARPAV (VR) 30/05/24 04.30 16.4 °C 100 % 16.4 °C  hPa 7.6 Km/h NE 0.0 mm  16.4 °C 17.1 °C
Vazzola - Tezze ARPAV (TV) 30/05/24 04.30 16.8 °C 98 % 16.5 °C  hPa 5.8 Km/h ENE 0.0 mm  15.6 °C 16.8 °C
Venezia - Istituto Cavanis ARPAV (VE) 30/05/24 04.30 19.5 °C 86 % 17.1 °C 1009.2 hPa 4.0 Km/h NNE 0.0 mm  19.5 °C 20.8 °C
Verona Bgo Roma Comune ''Brugnoli'' (VR) 30/05/24 04.47 18.0 °C 67 % 11.8 °C 1007.5 hPa 0.0 Km/h --- 0.0 mm  18.0 °C 19.6 °C
Verona Bgo Venezia (iz3sly) (VR) 30/05/24 04.45 17.0 °C 85 % 14.5 °C 1006.1 hPa 0.0 Km/h ENE 0.0 mm  16.6 °C 18.5 °C
Verona Boscomantico (VR) 30/05/24 04.45 17.2 °C 86 % 14.8 °C 1008.9 hPa 0.0 Km/h N 0.0 mm  16.7 °C 18.4 °C
Verona Cadidavid2 (VR) 30/05/24 04.41 18.1 °C 70 % 12.5 °C 1008.5 hPa 5.4 Km/h E 0.0 mm  18.1 °C 19.0 °C
Verona Centro Comune ''Bellavite'' (VR) 30/05/24 04.47 19.2 °C 74 % 14.4 °C 1008.9 hPa 0.0 Km/h NE 0.0 mm  19.1 °C 21.1 °C
Verona Golosine (VR) 30/05/24 04.50 18.8 °C 73 % 13.9 °C 1008.5 hPa 3.2 Km/h ESE 0.0 mm  18.8 °C 20.3 °C
Verona S. Caterina ARPAV (VR) 30/05/24 04.30 17.0 °C 85 % 14.5 °C  hPa 3.6 Km/h NNE 0.0 mm  16.9 °C 18.4 °C
Verona Saval3 (VR) 30/05/24 04.44 18.9 °C 74 % 14.2 °C 1010.0 hPa 0.0 Km/h N 0.0 mm  18.9 °C 20.2 °C
Vicenza Campedello (VI) 30/05/24 04.45 15.8 °C 80 % 12.4 °C 1008.8 hPa 0.0 Km/h SW 0.0 mm  15.7 °C 16.6 °C
Vicenza S. Lazzaro (VI) 30/05/24 04.46 18.0 °C 82 % 14.9 °C 1007.3 hPa 0.0 Km/h NW 0.0 mm  18.0 °C 20.0 °C
Vicenza San Gaetano (VI) 29/05/24 23.47 18.9 °C 78 % 15.0 °C 1010.3 hPa 0.0 Km/h NW 0.0 mm  14.7 °C 27.3 °C
Vidor (TV) 30/05/24 04.45 16.0 °C 90 % 14.4 °C 1008.1 hPa 0.0 Km/h S 0.0 mm  15.6 °C 16.7 °C
Vieste (FG) 30/05/24 04.49 17.5 °C 83 % 14.6 °C 1010.5 hPa 1.5 Km/h SSW 0.0 mm  17.4 °C 19.9 °C
Vigardolo (VI) 30/05/24 04.45 17.3 °C 81 % 14.1 °C 1006.1 hPa 0.4 Km/h NNW 0.0 mm  17.3 °C 19.2 °C
Vigasio (VR) 30/05/24 04.40 18.1 °C 87 % 15.9 °C 1007.7 hPa 0.0 Km/h E 0.0 mm  18.0 °C 20.6 °C
Vigasio2 (VR) 30/05/24 04.46 17.7 °C 89 % 15.9 °C 1008.7 hPa 10.4 Km/h W 0.0 mm  17.5 °C 19.6 °C
Villabartolomea (VR) 30/05/24 04.45 16.3 °C 93 % 15.2 °C 1006.3 hPa 3.2 Km/h ENE 0.0 mm  16.3 °C 18.6 °C
Villafranca di Verona (VR) 30/05/24 04.34 17.8 °C 91 % 16.3 °C 1011.5 hPa 1.7 Km/h WSW 0.0 mm  17.8 °C 20.4 °C
Villafranca di Verona ARPAV (VR) 30/05/24 04.30 16.6 °C 100 % 16.6 °C  hPa 3.6 Km/h ENE 0.0 mm  15.5 °C 16.6 °C
Villanova ARPAV (BL) 30/05/24 04.30 11.0 °C 100 % 11.0 °C  hPa 3.6 Km/h W 0.0 mm  11.0 °C 11.7 °C
Villar Perosa (TO) 30/05/24 04.45 14.3 °C 90 % 12.8 °C 1006.7 hPa 1.7 Km/h ENE 0.0 mm  14.3 °C 15.7 °C
Viozene Toria (CN) 30/05/24 04.45 11.2 °C 81 % 8.1 °C 1005.7 hPa 1.0 Km/h NE 0.0 mm  10.9 °C 12.6 °C
Vipiteno (BZ) 30/05/24 04.40 11.3 °C 100 % 11.3 °C 1009.5 hPa 6.5 Km/h NNE 0.0 mm  10.7 °C 12.3 °C
Viterbo Santa Barbara (VT) 30/05/24 04.49 15.4 °C 93 % 14.3 °C 1008.8 hPa 8.2 Km/h E 0.0 mm  15.1 °C 18.2 °C
Vittorio Veneto (TV) 30/05/24 00.30 18.6 °C 76 % 14.3 °C 1010.2 hPa 0.0 Km/h NNW 0.0 mm  18.6 °C 18.7 °C
Vittorio Veneto ARPAV (TV) 30/05/24 04.30 16.6 °C 90 % 15.0 °C  hPa 1.4 Km/h WNW 0.0 mm  16.6 °C 17.7 °C
Vittorio Veneto Fraz. Borgo Colesei (TV) 30/05/24 04.44 14.9 °C 91 % 13.5 °C 1010.8 hPa 0.0 Km/h SSE 0.0 mm  14.7 °C 16.3 °C
Vittorio Veneto Fraz. Ceneda (TV) 30/05/24 04.34 16.8 °C 80 % 13.4 °C 1007.1 hPa 0.0 Km/h W 0.0 mm  16.8 °C 17.8 °C
Vittorio Veneto Loc. Serravalle (TV) 30/05/24 04.43 15.4 °C 91 % 13.9 °C 0.0 hPa 0.0 Km/h - 0.0 mm  15.4 °C 16.4 °C
Vittorio Veneto2 (TV) 30/05/24 04.34 17.0 °C 81 % 13.6 °C 987.5 hPa 0.6 Km/h E 0.0 mm  16.9 °C 18.3 °C
Volpago del Montello (TV) 30/05/24 04.45 16.6 °C 63 % 9.5 °C 1008.2 hPa 0.0 Km/h --- 0.0 mm  15.2 °C 16.6 °C
Volpago del Montello ARPAV (TV) 30/05/24 04.30 17.0 °C 96 % 16.4 °C  hPa 6.5 Km/h NE 0.0 mm  14.9 °C 17.0 °C
Zevio (VR) 30/05/24 04.46 18.3 °C 77 % 14.2 °C 1007.3 hPa 0.0 Km/h NE 0.0 mm  18.1 °C 19.5 °C
Zevio Centro (VR) 30/05/24 04.46 17.6 °C 84 % 14.9 °C 1008.1 hPa 4.8 Km/h ENE 0.0 mm  17.6 °C 19.7 °C
Zimella (VR) 30/05/24 04.46 16.3 °C 86 % 14.0 °C 1009.0 hPa 0.1 Km/h NE 0.0 mm  16.3 °C 18.1 °C
 
(*) = Precipitazioni nelle ultime 24h.
Dati non aggiornati nelle ultime 2h.
   
In collaborazione con:
 
Top! Top!